Observation data for Odell on 03/29/2020      Previous  Date  Next       Current Mesonet Observations  Soil Data  Daily Summary Page  Observations in Plain Language
KOD1 290500Z 01008KT 10/03 A3007 RMK A01 T00990027  RH  060%=      5-min Rain = 0
KOD1 290501Z 01008KT 10/03 A3007 RMK A01 T00990026  RH  061%=      5-min Rain = 0
KOD1 290502Z 01007KT 10/03 A3007 RMK A01 T00990026  RH  060%=      5-min Rain = 0
KOD1 290503Z 01008KT 10/03 A3007 RMK A01 T00990026  RH  060%=      5-min Rain = 0
KOD1 290504Z 01007KT 10/03 A3007 RMK A01 T01000026  RH  060%=      5-min Rain = 0
KOD1 290505Z 01008KT 10/03 A3007 RMK A01 T01000026  RH  060%=      5-min Rain = 0
KOD1 290506Z 01008KT 10/03 A3007 RMK A01 T00990026  RH  060%=      5-min Rain = 0
KOD1 290507Z 01009KT 10/03 A3007 RMK A01 T00990026  RH  060%=      5-min Rain = 0
KOD1 290508Z 01008KT 10/03 A3007 RMK A01 T00990026  RH  060%=      5-min Rain = 0
KOD1 290509Z 01009KT 10/03 A3007 RMK A01 T01000026  RH  060%=      5-min Rain = 0
KOD1 290510Z 01009KT 10/03 A3007 RMK A01 T01000026  RH  060%=      5-min Rain = 0
KOD1 290511Z 01009KT 10/03 A3007 RMK A01 T01000026  RH  060%=      5-min Rain = 0
KOD1 290512Z 01008KT 10/03 A3007 RMK A01 T01010026  RH  060%=      5-min Rain = 0
KOD1 290513Z 01008KT 10/03 A3007 RMK A01 T01000026  RH  060%=      5-min Rain = 0
KOD1 290514Z 01008KT 10/03 A3007 RMK A01 T00990026  RH  060%=      5-min Rain = 0
KOD1 290515Z 01008KT 10/03 A3007 RMK A01 T01000025  RH  060%=      5-min Rain = 0
KOD1 290516Z 01009KT 10/03 A3007 RMK A01 T01000026  RH  060%=      5-min Rain = 0
KOD1 290517Z 01009KT 10/03 A3007 RMK A01 T01010025  RH  059%=      5-min Rain = 0
KOD1 290518Z 01009KT 10/03 A3007 RMK A01 T01010026  RH  059%=      5-min Rain = 0
KOD1 290519Z 01010KT 10/03 A3007 RMK A01 T01010025  RH  059%=      5-min Rain = 0
KOD1 290520Z 01009KT 10/03 A3007 RMK A01 T01030025  RH  059%=      5-min Rain = 0
KOD1 290521Z 01009KT 10/03 A3007 RMK A01 T01030025  RH  058%=      5-min Rain = 0
KOD1 290522Z 01009KT 10/03 A3007 RMK A01 T01030025  RH  058%=      5-min Rain = 0
KOD1 290523Z 01010KT 10/03 A3007 RMK A01 T01020025  RH  059%=      5-min Rain = 0
KOD1 290524Z 01010KT 10/03 A3007 RMK A01 T01020025  RH  059%=      5-min Rain = 0
KOD1 290525Z 01010KT 10/03 A3007 RMK A01 T01020025  RH  059%=      5-min Rain = 0
KOD1 290526Z 01009KT 10/03 A3007 RMK A01 T01020025  RH  059%=      5-min Rain = 0
KOD1 290527Z 01009KT 10/03 A3007 RMK A01 T01020025  RH  059%=      5-min Rain = 0
KOD1 290528Z 01009KT 10/03 A3007 RMK A01 T01020025  RH  059%=      5-min Rain = 0
KOD1 290529Z 01010KT 10/03 A3007 RMK A01 T01020025  RH  059%=      5-min Rain = 0
KOD1 290530Z 01009KT 10/03 A3007 RMK A01 T01020025  RH  058%=      5-min Rain = 0
KOD1 290531Z 01009KT 10/03 A3007 RMK A01 T01030025  RH  059%=      5-min Rain = 0
KOD1 290532Z 01009KT 10/03 A3007 RMK A01 T01030025  RH  059%=      5-min Rain = 0
KOD1 290533Z 01009KT 10/03 A3007 RMK A01 T01020025  RH  059%=      5-min Rain = 0
KOD1 290534Z 01009KT 10/03 A3007 RMK A01 T01010025  RH  059%=      5-min Rain = 0
KOD1 290535Z 01009KT 10/03 A3007 RMK A01 T01010025  RH  059%=      5-min Rain = 0
KOD1 290536Z 01009KT 10/03 A3007 RMK A01 T01010025  RH  059%=      5-min Rain = 0
KOD1 290537Z 01009KT 10/03 A3007 RMK A01 T01010025  RH  059%=      5-min Rain = 0
KOD1 290538Z 01009KT 10/03 A3007 RMK A01 T01000025  RH  059%=      5-min Rain = 0
KOD1 290539Z 01009KT 10/03 A3007 RMK A01 T01000025  RH  060%=      5-min Rain = 0
KOD1 290540Z 01009KT 10/03 A3007 RMK A01 T01000025  RH  060%=      5-min Rain = 0
KOD1 290541Z 01009KT 10/03 A3007 RMK A01 T00990025  RH  060%=      5-min Rain = 0
KOD1 290542Z 01009KT 10/03 A3007 RMK A01 T00990025  RH  060%=      5-min Rain = 0
KOD1 290543Z 01008KT 10/03 A3007 RMK A01 T00980025  RH  060%=      5-min Rain = 0
KOD1 290544Z 01008KT 10/03 A3007 RMK A01 T00980025  RH  060%=      5-min Rain = 0
KOD1 290545Z 01008KT 10/03 A3007 RMK A01 T00980026  RH  061%=      5-min Rain = 0
KOD1 290546Z 01009KT 10/03 A3007 RMK A01 T00970026  RH  061%=      5-min Rain = 0
KOD1 290547Z 01009KT 10/03 A3007 RMK A01 T00970025  RH  061%=      5-min Rain = 0
KOD1 290548Z 01009KT 10/03 A3007 RMK A01 T00970025  RH  061%=      5-min Rain = 0
KOD1 290549Z 01008KT 10/03 A3007 RMK A01 T00970026  RH  061%=      5-min Rain = 0
KOD1 290550Z 01008KT 10/03 A3007 RMK A01 T00970026  RH  061%=      5-min Rain = 0
KOD1 290551Z 01008KT 10/03 A3007 RMK A01 T00960026  RH  061%=      5-min Rain = 0
KOD1 290552Z 01008KT 10/03 A3007 RMK A01 T00950025  RH  062%=      5-min Rain = 0
KOD1 290553Z 01008KT 10/03 A3007 RMK A01 T00950026  RH  062%=      5-min Rain = 0
KOD1 290554Z 01007KT 09/03 A3007 RMK A01 T00940026  RH  062%=      5-min Rain = 0
KOD1 290555Z 01008KT 09/03 A3007 RMK A01 T00930026  RH  063%=      5-min Rain = 0
KOD1 290556Z 01007KT 09/03 A3007 RMK A01 T00920026  RH  063%=      5-min Rain = 0
KOD1 290557Z 01007KT 09/03 A3007 RMK A01 T00910026  RH  064%=      5-min Rain = 0
KOD1 290558Z 00007KT 09/03 A3007 RMK A01 T00900026  RH  064%=      5-min Rain = 0
KOD1 290559Z 01007KT 09/03 A3007 RMK A01 T00890027  RH  065%=      5-min Rain = 0
KOD1 290600Z 01007KT 09/03 A3007 RMK A01 T00890026  RH  065%=      5-min Rain = 0
KOD1 290601Z 01006KT 09/03 A3007 RMK A01 T00880026  RH  065%=      5-min Rain = 0
KOD1 290602Z 01006KT 09/03 A3007 RMK A01 T00870026  RH  065%=      5-min Rain = 0
KOD1 290603Z 01007KT 09/03 A3007 RMK A01 T00860026  RH  066%=      5-min Rain = 0
KOD1 290604Z 01007KT 09/03 A3007 RMK A01 T00850025  RH  066%=      5-min Rain = 0
KOD1 290605Z 01007KT 09/03 A3007 RMK A01 T00860026  RH  066%=      5-min Rain = 0
KOD1 290606Z 01007KT 09/03 A3007 RMK A01 T00850026  RH  066%=      5-min Rain = 0
KOD1 290607Z 01008KT 09/03 A3007 RMK A01 T00850026  RH  067%=      5-min Rain = 0
KOD1 290608Z 00008KT 08/03 A3007 RMK A01 T00840026  RH  067%=      5-min Rain = 0
KOD1 290609Z 00008KT 08/03 A3007 RMK A01 T00840026  RH  067%=      5-min Rain = 0
KOD1 290610Z 00008KT 08/03 A3007 RMK A01 T00840027  RH  067%=      5-min Rain = 0
KOD1 290611Z 00008KT 08/03 A3007 RMK A01 T00840027  RH  067%=      5-min Rain = 0
KOD1 290612Z 00007KT 08/03 A3007 RMK A01 T00840026  RH  067%=      5-min Rain = 0
KOD1 290613Z 00007KT 08/03 A3007 RMK A01 T00840027  RH  067%=      5-min Rain = 0
KOD1 290614Z 00007KT 08/03 A3007 RMK A01 T00840027  RH  067%=      5-min Rain = 0
KOD1 290615Z 00007KT 08/03 A3007 RMK A01 T00840026  RH  067%=      5-min Rain = 0
KOD1 290616Z 36007KT 08/03 A3007 RMK A01 T00840027  RH  067%=      5-min Rain = 0
KOD1 290617Z 36006KT 08/03 A3007 RMK A01 T00840027  RH  068%=      5-min Rain = 0
KOD1 290618Z 00006KT 08/03 A3007 RMK A01 T00830027  RH  068%=      5-min Rain = 0
KOD1 290619Z 00007KT 08/03 A3007 RMK A01 T00820027  RH  068%=      5-min Rain = 0
KOD1 290620Z 00006KT 08/03 A3007 RMK A01 T00820027  RH  068%=      5-min Rain = 0
KOD1 290621Z 00006KT 08/03 A3007 RMK A01 T00810027  RH  069%=      5-min Rain = 0
KOD1 290622Z 00006KT 08/03 A3007 RMK A01 T00810028  RH  069%=      5-min Rain = 0
KOD1 290623Z 00006KT 08/03 A3007 RMK A01 T00790027  RH  070%=      5-min Rain = 0
KOD1 290624Z 00006KT 08/03 A3007 RMK A01 T00790028  RH  070%=      5-min Rain = 0
KOD1 290625Z 00006KT 08/03 A3007 RMK A01 T00780027  RH  070%=      5-min Rain = 0
KOD1 290626Z 00006KT 08/03 A3007 RMK A01 T00780027  RH  070%=      5-min Rain = 0
KOD1 290627Z 00006KT 08/03 A3007 RMK A01 T00780027  RH  070%=      5-min Rain = 0
KOD1 290628Z 00006KT 08/03 A3007 RMK A01 T00770027  RH  071%=      5-min Rain = 0
KOD1 290629Z 00006KT 08/03 A3007 RMK A01 T00770028  RH  071%=      5-min Rain = 0
KOD1 290630Z 01006KT 08/03 A3008 RMK A01 T00760028  RH  071%=      5-min Rain = 0
KOD1 290631Z 01006KT 08/03 A3008 RMK A01 T00750028  RH  072%=      5-min Rain = 0
KOD1 290632Z 00006KT 08/03 A3008 RMK A01 T00750028  RH  072%=      5-min Rain = 0
KOD1 290633Z 01006KT 08/03 A3008 RMK A01 T00750028  RH  072%=      5-min Rain = 0
KOD1 290634Z 00006KT 08/03 A3008 RMK A01 T00750027  RH  072%=      5-min Rain = 0
KOD1 290635Z 00006KT 08/03 A3008 RMK A01 T00750027  RH  072%=      5-min Rain = 0
KOD1 290636Z 00006KT 08/03 A3008 RMK A01 T00750027  RH  071%=      5-min Rain = 0
KOD1 290637Z 00006KT 08/03 A3008 RMK A01 T00750026  RH  071%=      5-min Rain = 0
KOD1 290638Z 00006KT 08/03 A3008 RMK A01 T00750027  RH  072%=      5-min Rain = 0
KOD1 290639Z 01006KT 07/03 A3008 RMK A01 T00740027  RH  072%=      5-min Rain = 0
KOD1 290640Z 01005KT 07/03 A3008 RMK A01 T00740026  RH  072%=      5-min Rain = 0
KOD1 290641Z 01005KT 08/03 A3008 RMK A01 T00750026  RH  071%=      5-min Rain = 0
KOD1 290642Z 01004KT 08/03 A3008 RMK A01 T00750026  RH  071%=      5-min Rain = 0
KOD1 290643Z 01005KT 08/03 A3008 RMK A01 T00750026  RH  071%=      5-min Rain = 0
KOD1 290644Z 01004KT 08/03 A3008 RMK A01 T00750025  RH  071%=      5-min Rain = 0
KOD1 290645Z 01004KT 08/03 A3008 RMK A01 T00750025  RH  071%=      5-min Rain = 0
KOD1 290646Z 01004KT 07/03 A3008 RMK A01 T00740025  RH  071%=      5-min Rain = 0
KOD1 290647Z 00004KT 07/03 A3008 RMK A01 T00740025  RH  071%=      5-min Rain = 0
KOD1 290648Z 00004KT 07/03 A3008 RMK A01 T00740025  RH  071%=      5-min Rain = 0
KOD1 290649Z 00004KT 07/03 A3008 RMK A01 T00730025  RH  071%=      5-min Rain = 0
KOD1 290650Z 36003KT 07/03 A3008 RMK A01 T00730026  RH  072%=      5-min Rain = 0
KOD1 290651Z 35003KT 07/03 A3008 RMK A01 T00710026  RH  073%=      5-min Rain = 0
KOD1 290652Z 35003KT 07/03 A3008 RMK A01 T00710026  RH  073%=      5-min Rain = 0
KOD1 290653Z 35003KT 07/03 A3008 RMK A01 T00700026  RH  073%=      5-min Rain = 0
KOD1 290654Z 36002KT 07/03 A3008 RMK A01 T00700026  RH  073%=      5-min Rain = 0
KOD1 290655Z 02002KT 07/03 A3008 RMK A01 T00700026  RH  074%=      5-min Rain = 0
KOD1 290656Z 03002KT 07/03 A3008 RMK A01 T00700027  RH  074%=      5-min Rain = 0
KOD1 290657Z 02002KT 07/03 A3008 RMK A01 T00700027  RH  074%=      5-min Rain = 0
KOD1 290658Z 01002KT 07/03 A3008 RMK A01 T00710028  RH  074%=      5-min Rain = 0
KOD1 290659Z 00003KT 07/03 A3008 RMK A01 T00710028  RH  074%=      5-min Rain = 0
KOD1 290700Z 00003KT 07/03 A3008 RMK A01 T00720028  RH  074%=      5-min Rain = 0
KOD1 290701Z 36003KT 07/03 A3008 RMK A01 T00720028  RH  073%=      5-min Rain = 0
KOD1 290702Z 35004KT 07/03 A3008 RMK A01 T00720027  RH  073%=      5-min Rain = 0
KOD1 290703Z 35004KT 07/03 A3008 RMK A01 T00730027  RH  073%=      5-min Rain = 0
KOD1 290704Z 35004KT 07/03 A3008 RMK A01 T00730027  RH  073%=      5-min Rain = 0
KOD1 290705Z 35003KT 07/03 A3008 RMK A01 T00730026  RH  072%=      5-min Rain = 0
KOD1 290706Z 00003KT 07/03 A3008 RMK A01 T00720026  RH  072%=      5-min Rain = 0
KOD1 290707Z 00003KT 07/03 A3008 RMK A01 T00720026  RH  073%=      5-min Rain = 0
KOD1 290708Z 00002KT 07/03 A3008 RMK A01 T00710025  RH  073%=      5-min Rain = 0
KOD1 290709Z 01002KT 07/03 A3008 RMK A01 T00700025  RH  073%=      5-min Rain = 0
KOD1 290710Z 01002KT 07/03 A3008 RMK A01 T00690025  RH  073%=      5-min Rain = 0
KOD1 290711Z 02002KT 07/03 A3008 RMK A01 T00690025  RH  074%=      5-min Rain = 0
KOD1 290712Z 02002KT 07/03 A3008 RMK A01 T00690025  RH  073%=      5-min Rain = 0
KOD1 290713Z 02002KT 07/03 A3008 RMK A01 T00690025  RH  073%=      5-min Rain = 0
KOD1 290714Z 03002KT 07/03 A3008 RMK A01 T00690025  RH  073%=      5-min Rain = 0
KOD1 290715Z 03003KT 07/02 A3008 RMK A01 T00690024  RH  073%=      5-min Rain = 0
KOD1 290716Z 03003KT 07/03 A3008 RMK A01 T00680025  RH  074%=      5-min Rain = 0
KOD1 290717Z 03003KT 07/03 A3008 RMK A01 T00680025  RH  074%=      5-min Rain = 0
KOD1 290718Z 03004KT 07/03 A3008 RMK A01 T00670025  RH  074%=      5-min Rain = 0
KOD1 290719Z 02004KT 07/03 A3008 RMK A01 T00670025  RH  074%=      5-min Rain = 0
KOD1 290720Z 02004KT 07/03 A3008 RMK A01 T00660025  RH  075%=      5-min Rain = 0
KOD1 290721Z 02004KT 07/03 A3008 RMK A01 T00660025  RH  075%=      5-min Rain = 0
KOD1 290722Z 02004KT 07/03 A3008 RMK A01 T00660026  RH  075%=      5-min Rain = 0
KOD1 290723Z 03004KT 07/03 A3008 RMK A01 T00660026  RH  075%=      5-min Rain = 0
KOD1 290724Z 03004KT 07/03 A3008 RMK A01 T00650025  RH  076%=      5-min Rain = 0
KOD1 290725Z 03004KT 07/03 A3008 RMK A01 T00650026  RH  076%=      5-min Rain = 0
KOD1 290726Z 03004KT 07/03 A3008 RMK A01 T00650026  RH  076%=      5-min Rain = 0
KOD1 290727Z 03004KT 07/03 A3008 RMK A01 T00650026  RH  076%=      5-min Rain = 0
KOD1 290728Z 02004KT 07/03 A3008 RMK A01 T00650026  RH  076%=      5-min Rain = 0
KOD1 290729Z 02003KT 06/03 A3008 RMK A01 T00640025  RH  076%=      5-min Rain = 0
KOD1 290730Z 02003KT 06/03 A3008 RMK A01 T00630025  RH  077%=      5-min Rain = 0
KOD1 290731Z 01004KT 06/03 A3009 RMK A01 T00630026  RH  077%=      5-min Rain = 0
KOD1 290732Z 01004KT 06/03 A3009 RMK A01 T00640027  RH  077%=      5-min Rain = 0
KOD1 290733Z 00003KT 07/03 A3009 RMK A01 T00660027  RH  076%=      5-min Rain = 0
KOD1 290734Z 36003KT 07/03 A3009 RMK A01 T00660025  RH  075%=      5-min Rain = 0
KOD1 290735Z 35003KT 07/02 A3009 RMK A01 T00650024  RH  075%=      5-min Rain = 0
KOD1 290736Z 35003KT 07/02 A3009 RMK A01 T00650024  RH  075%=      5-min Rain = 0
KOD1 290737Z 35003KT 06/02 A3009 RMK A01 T00630023  RH  075%=      5-min Rain = 0
KOD1 290738Z 35003KT 06/02 A3009 RMK A01 T00620023  RH  076%=      5-min Rain = 0
KOD1 290739Z 35003KT 06/02 A3009 RMK A01 T00610022  RH  076%=      5-min Rain = 0
KOD1 290740Z 35003KT 06/02 A3009 RMK A01 T00600023  RH  077%=      5-min Rain = 0
KOD1 290741Z 34003KT 06/02 A3009 RMK A01 T00600024  RH  078%=      5-min Rain = 0
KOD1 290742Z 34003KT 06/03 A3009 RMK A01 T00600025  RH  078%=      5-min Rain = 0
KOD1 290743Z 34003KT 06/03 A3009 RMK A01 T00610026  RH  078%=      5-min Rain = 0
KOD1 290744Z 34003KT 06/03 A3009 RMK A01 T00620025  RH  078%=      5-min Rain = 0
KOD1 290745Z 34003KT 06/03 A3009 RMK A01 T00620025  RH  077%=      5-min Rain = 0
KOD1 290746Z 34003KT 06/03 A3009 RMK A01 T00620025  RH  077%=      5-min Rain = 0
KOD1 290747Z 34003KT 06/03 A3009 RMK A01 T00620025  RH  077%=      5-min Rain = 0
KOD1 290748Z 34002KT 06/02 A3009 RMK A01 T00610024  RH  077%=      5-min Rain = 0
KOD1 290749Z 34002KT 06/02 A3009 RMK A01 T00600023  RH  077%=      5-min Rain = 0
KOD1 290750Z 34002KT 06/02 A3009 RMK A01 T00590022  RH  077%=      5-min Rain = 0
KOD1 290751Z 34002KT 06/02 A3009 RMK A01 T00580022  RH  077%=      5-min Rain = 0
KOD1 290752Z 35002KT 06/02 A3009 RMK A01 T00570022  RH  078%=      5-min Rain = 0
KOD1 290753Z 35002KT 06/02 A3009 RMK A01 T00560023  RH  079%=      5-min Rain = 0
KOD1 290754Z 35001KT 06/02 A3009 RMK A01 T00560024  RH  080%=      5-min Rain = 0
KOD1 290755Z 35001KT 06/02 A3009 RMK A01 T00560024  RH  080%=      5-min Rain = 0
KOD1 290756Z 35002KT 06/02 A3009 RMK A01 T00560024  RH  080%=      5-min Rain = 0
KOD1 290757Z 34002KT 06/02 A3009 RMK A01 T00560024  RH  080%=      5-min Rain = 0
KOD1 290758Z 34002KT 06/02 A3009 RMK A01 T00550024  RH  081%=      5-min Rain = 0
KOD1 290759Z 34002KT 06/03 A3009 RMK A01 T00550025  RH  081%=      5-min Rain = 0
KOD1 290800Z 34002KT 05/03 A3009 RMK A01 T00540025  RH  082%=      5-min Rain = 0
KOD1 290801Z 34002KT 05/03 A3009 RMK A01 T00530025  RH  082%=      5-min Rain = 0
KOD1 290802Z 34002KT 05/03 A3009 RMK A01 T00530026  RH  083%=      5-min Rain = 0
KOD1 290803Z 34002KT 05/03 A3009 RMK A01 T00530026  RH  083%=      5-min Rain = 0
KOD1 290804Z 33003KT 05/03 A3009 RMK A01 T00520027  RH  084%=      5-min Rain = 0
KOD1 290805Z 32003KT 05/03 A3009 RMK A01 T00520027  RH  084%=      5-min Rain = 0
KOD1 290806Z 32003KT 05/03 A3009 RMK A01 T00520027  RH  084%=      5-min Rain = 0
KOD1 290807Z 31002KT 05/03 A3009 RMK A01 T00530027  RH  083%=      5-min Rain = 0
KOD1 290808Z 30002KT 05/03 A3009 RMK A01 T00540026  RH  082%=      5-min Rain = 0
KOD1 290809Z 28002KT 05/03 A3009 RMK A01 T00530025  RH  082%=      5-min Rain = 0
KOD1 290810Z 26002KT 05/03 A3009 RMK A01 T00530027  RH  083%=      5-min Rain = 0
KOD1 290811Z 24002KT 05/03 A3009 RMK A01 T00530028  RH  084%=      5-min Rain = 0
KOD1 290812Z 22003KT 05/03 A3009 RMK A01 T00530028  RH  084%=      5-min Rain = 0
KOD1 290813Z 20003KT 05/03 A3009 RMK A01 T00530029  RH  085%=      5-min Rain = 0
KOD1 290814Z 20003KT 05/03 A3009 RMK A01 T00530032  RH  086%=      5-min Rain = 0
KOD1 290815Z 20003KT 05/04 A3009 RMK A01 T00540035  RH  087%=      5-min Rain = 0
KOD1 290816Z 21002KT 06/04 A3009 RMK A01 T00550036  RH  087%=      5-min Rain = 0
KOD1 290817Z 22002KT 06/04 A3009 RMK A01 T00550036  RH  087%=      5-min Rain = 0
KOD1 290818Z 24002KT 06/04 A3009 RMK A01 T00550035  RH  087%=      5-min Rain = 0
KOD1 290819Z 26002KT 06/03 A3009 RMK A01 T00550034  RH  086%=      5-min Rain = 0
KOD1 290820Z 27003KT 06/03 A3009 RMK A01 T00550034  RH  086%=      5-min Rain = 0
KOD1 290821Z 28003KT 06/03 A3009 RMK A01 T00560034  RH  086%=      5-min Rain = 0
KOD1 290822Z 28003KT 06/03 A3009 RMK A01 T00560032  RH  085%=      5-min Rain = 0
KOD1 290823Z 27003KT 06/03 A3009 RMK A01 T00560031  RH  084%=      5-min Rain = 0
KOD1 290824Z 27003KT 06/03 A3009 RMK A01 T00560031  RH  084%=      5-min Rain = 0
KOD1 290825Z 27003KT 06/03 A3009 RMK A01 T00570031  RH  084%=      5-min Rain = 0
KOD1 290826Z 27003KT 06/03 A3009 RMK A01 T00570031  RH  084%=      5-min Rain = 0
KOD1 290827Z 27003KT 06/03 A3009 RMK A01 T00560031  RH  084%=      5-min Rain = 0
KOD1 290828Z 27003KT 06/03 A3009 RMK A01 T00560031  RH  084%=      5-min Rain = 0
KOD1 290829Z 27003KT 06/03 A3009 RMK A01 T00550031  RH  085%=      5-min Rain = 0
KOD1 290830Z 27003KT 05/03 A3009 RMK A01 T00540031  RH  085%=      5-min Rain = 0
KOD1 290831Z 26003KT 05/03 A3009 RMK A01 T00530031  RH  086%=      5-min Rain = 0
KOD1 290832Z 27003KT 05/03 A3009 RMK A01 T00520030  RH  086%=      5-min Rain = 0
KOD1 290833Z 27003KT 05/03 A3009 RMK A01 T00510030  RH  086%=      5-min Rain = 0
KOD1 290834Z 27003KT 05/03 A3009 RMK A01 T00500029  RH  086%=      5-min Rain = 0
KOD1 290835Z 29003KT 05/03 A3009 RMK A01 T00500029  RH  087%=      5-min Rain = 0
KOD1 290836Z 30003KT 05/03 A3009 RMK A01 T00490029  RH  087%=      5-min Rain = 0
KOD1 290837Z 30004KT 05/03 A3009 RMK A01 T00490028  RH  086%=      5-min Rain = 0
KOD1 290838Z 31004KT 05/03 A3009 RMK A01 T00490028  RH  086%=      5-min Rain = 0
KOD1 290839Z 31005KT 05/03 A3009 RMK A01 T00500028  RH  085%=      5-min Rain = 0
KOD1 290840Z 31004KT 05/03 A3009 RMK A01 T00510026  RH  084%=      5-min Rain = 0
KOD1 290841Z 31005KT 05/02 A3009 RMK A01 T00500024  RH  084%=      5-min Rain = 0
KOD1 290842Z 30005KT 05/02 A3009 RMK A01 T00490023  RH  084%=      5-min Rain = 0
KOD1 290843Z 30005KT 05/02 A3009 RMK A01 T00480023  RH  084%=      5-min Rain = 0
KOD1 290844Z 29005KT 05/02 A3009 RMK A01 T00480022  RH  084%=      5-min Rain = 0
KOD1 290845Z 29004KT 05/02 A3009 RMK A01 T00470022  RH  084%=      5-min Rain = 0
KOD1 290846Z 29004KT 05/02 A3009 RMK A01 T00460022  RH  084%=      5-min Rain = 0
KOD1 290847Z 29004KT 05/02 A3009 RMK A01 T00460022  RH  084%=      5-min Rain = 0
KOD1 290848Z 28004KT 05/02 A3009 RMK A01 T00460022  RH  084%=      5-min Rain = 0
KOD1 290849Z 28004KT 05/02 A3009 RMK A01 T00460022  RH  084%=      5-min Rain = 0
KOD1 290850Z 29004KT 05/02 A3009 RMK A01 T00450021  RH  084%=      5-min Rain = 0
KOD1 290851Z 28004KT 05/02 A3009 RMK A01 T00450021  RH  084%=      5-min Rain = 0
KOD1 290852Z 28004KT 05/02 A3009 RMK A01 T00450022  RH  085%=      5-min Rain = 0
KOD1 290853Z 28005KT 05/02 A3009 RMK A01 T00460022  RH  085%=      5-min Rain = 0
KOD1 290854Z 29005KT 05/02 A3009 RMK A01 T00470023  RH  084%=      5-min Rain = 0
KOD1 290855Z 28005KT 05/02 A3009 RMK A01 T00470022  RH  084%=      5-min Rain = 0
KOD1 290856Z 28005KT 05/02 A3009 RMK A01 T00470022  RH  083%=      5-min Rain = 0
KOD1 290857Z 28005KT 05/02 A3009 RMK A01 T00470021  RH  083%=      5-min Rain = 0
KOD1 290858Z 29005KT 05/02 A3009 RMK A01 T00470021  RH  083%=      5-min Rain = 0
KOD1 290859Z 29005KT 05/02 A3009 RMK A01 T00460021  RH  084%=      5-min Rain = 0
KOD1 290900Z 28004KT 05/02 A3009 RMK A01 T00460021  RH  084%=      5-min Rain = 0
KOD1 290901Z 28004KT 05/02 A3009 RMK A01 T00450021  RH  084%=      5-min Rain = 0
KOD1 290902Z 27004KT 05/02 A3009 RMK A01 T00450021  RH  084%=      5-min Rain = 0
KOD1 290903Z 27004KT 04/02 A3009 RMK A01 T00440020  RH  084%=      5-min Rain = 0
KOD1 290904Z 26004KT 04/02 A3009 RMK A01 T00430019  RH  085%=      5-min Rain = 0
KOD1 290905Z 26004KT 04/02 A3009 RMK A01 T00420019  RH  085%=      5-min Rain = 0
KOD1 290906Z 26004KT 04/02 A3009 RMK A01 T00400018  RH  085%=      5-min Rain = 0
KOD1 290907Z 27004KT 04/02 A3009 RMK A01 T00390018  RH  086%=      5-min Rain = 0
KOD1 290908Z 27004KT 04/02 A3009 RMK A01 T00390018  RH  086%=      5-min Rain = 0
KOD1 290909Z 27004KT 04/02 A3009 RMK A01 T00380018  RH  087%=      5-min Rain = 0
KOD1 290910Z 27004KT 04/02 A3009 RMK A01 T00380018  RH  087%=      5-min Rain = 0
KOD1 290911Z 27004KT 04/02 A301 RMK A01 T00370018  RH  087%=      5-min Rain = 0
KOD1 290912Z 26003KT 04/02 A301 RMK A01 T00370019  RH  088%=      5-min Rain = 0
KOD1 290913Z 24003KT 04/02 A301 RMK A01 T00380021  RH  089%=      5-min Rain = 0
KOD1 290914Z 22003KT 04/02 A301 RMK A01 T00400023  RH  089%=      5-min Rain = 0
KOD1 290915Z 21003KT 04/02 A301 RMK A01 T00410023  RH  088%=      5-min Rain = 0
KOD1 290916Z 20004KT 04/02 A301 RMK A01 T00410024  RH  088%=      5-min Rain = 0
KOD1 290917Z 21004KT 04/03 A301 RMK A01 T00420026  RH  089%=      5-min Rain = 0
KOD1 290918Z 22004KT 04/03 A301 RMK A01 T00430027  RH  089%=      5-min Rain = 0
KOD1 290919Z 22004KT 04/03 A301 RMK A01 T00440029  RH  090%=      5-min Rain = 0
KOD1 290920Z 23004KT 05/03 A301 RMK A01 T00450029  RH  089%=      5-min Rain = 0
KOD1 290921Z 23004KT 05/03 A301 RMK A01 T00450027  RH  089%=      5-min Rain = 0
KOD1 290922Z 24004KT 04/03 A301 RMK A01 T00440027  RH  088%=      5-min Rain = 0
KOD1 290923Z 24004KT 04/03 A301 RMK A01 T00440026  RH  088%=      5-min Rain = 0
KOD1 290924Z 24005KT 04/03 A301 RMK A01 T00440026  RH  088%=      5-min Rain = 0
KOD1 290925Z 25005KT 04/03 A301 RMK A01 T00430025  RH  088%=      5-min Rain = 0
KOD1 290926Z 25005KT 04/03 A301 RMK A01 T00430025  RH  088%=      5-min Rain = 0
KOD1 290927Z 24005KT 04/03 A301 RMK A01 T00430025  RH  088%=      5-min Rain = 0
KOD1 290928Z 24005KT 04/03 A301 RMK A01 T00430025  RH  088%=      5-min Rain = 0
KOD1 290929Z 24005KT 04/03 A301 RMK A01 T00430025  RH  088%=      5-min Rain = 0
KOD1 290930Z 24005KT 04/03 A301 RMK A01 T00430025  RH  088%=      5-min Rain = 0
KOD1 290931Z 24005KT 04/02 A301 RMK A01 T00420024  RH  088%=      5-min Rain = 0
KOD1 290932Z 24005KT 04/02 A301 RMK A01 T00420024  RH  088%=      5-min Rain = 0
KOD1 290933Z 25005KT 04/02 A301 RMK A01 T00420024  RH  088%=      5-min Rain = 0
KOD1 290934Z 25005KT 04/02 A301 RMK A01 T00420024  RH  088%=      5-min Rain = 0
KOD1 290935Z 25005KT 04/02 A301 RMK A01 T00430024  RH  088%=      5-min Rain = 0
KOD1 290936Z 26005KT 04/02 A301 RMK A01 T00430024  RH  088%=      5-min Rain = 0
KOD1 290937Z 27005KT 04/02 A3009 RMK A01 T00430024  RH  088%=      5-min Rain = 0
KOD1 290938Z 27005KT 04/02 A3009 RMK A01 T00430024  RH  088%=      5-min Rain = 0
KOD1 290939Z 27005KT 04/02 A3009 RMK A01 T00430023  RH  087%=      5-min Rain = 0
KOD1 290940Z 27005KT 04/02 A301 RMK A01 T00430023  RH  087%=      5-min Rain = 0
KOD1 290941Z 27005KT 04/02 A301 RMK A01 T00430022  RH  087%=      5-min Rain = 0
KOD1 290942Z 27005KT 04/02 A301 RMK A01 T00420022  RH  087%=      5-min Rain = 0
KOD1 290943Z 27005KT 04/02 A301 RMK A01 T00410021  RH  087%=      5-min Rain = 0
KOD1 290944Z 27005KT 04/02 A301 RMK A01 T00400020  RH  087%=      5-min Rain = 0
KOD1 290945Z 27005KT 04/02 A301 RMK A01 T00400020  RH  087%=      5-min Rain = 0
KOD1 290946Z 27005KT 04/02 A301 RMK A01 T00390020  RH  087%=      5-min Rain = 0
KOD1 290947Z 27005KT 04/02 A301 RMK A01 T00390020  RH  088%=      5-min Rain = 0
KOD1 290948Z 28005KT 04/02 A301 RMK A01 T00380019  RH  088%=      5-min Rain = 0
KOD1 290949Z 28005KT 04/02 A301 RMK A01 T00380019  RH  088%=      5-min Rain = 0
KOD1 290950Z 28005KT 04/02 A301 RMK A01 T00380019  RH  088%=      5-min Rain = 0
KOD1 290951Z 29005KT 04/02 A3009 RMK A01 T00370018  RH  087%=      5-min Rain = 0
KOD1 290952Z 29005KT 04/02 A3009 RMK A01 T00370018  RH  087%=      5-min Rain = 0
KOD1 290953Z 29005KT 04/02 A301 RMK A01 T00370017  RH  087%=      5-min Rain = 0
KOD1 290954Z 29005KT 04/02 A301 RMK A01 T00360017  RH  087%=      5-min Rain = 0
KOD1 290955Z 28005KT 04/02 A301 RMK A01 T00360017  RH  087%=      5-min Rain = 0
KOD1 290956Z 28005KT 04/02 A301 RMK A01 T00350016  RH  087%=      5-min Rain = 0
KOD1 290957Z 28005KT 04/02 A301 RMK A01 T00350016  RH  087%=      5-min Rain = 0
KOD1 290958Z 28005KT 04/02 A301 RMK A01 T00350016  RH  087%=      5-min Rain = 0
KOD1 290959Z 28005KT 04/02 A301 RMK A01 T00350016  RH  087%=      5-min Rain = 0
KOD1 291000Z 27005KT 03/02 A301 RMK A01 T00340016  RH  087%=      5-min Rain = 0
KOD1 291001Z 27005KT 03/02 A301 RMK A01 T00340015  RH  087%=      5-min Rain = 0
KOD1 291002Z 27005KT 03/02 A301 RMK A01 T00330015  RH  088%=      5-min Rain = 0
KOD1 291003Z 27005KT 03/02 A301 RMK A01 T00340015  RH  088%=      5-min Rain = 0
KOD1 291004Z 28005KT 03/02 A301 RMK A01 T00330015  RH  088%=      5-min Rain = 0
KOD1 291005Z 27005KT 03/02 A301 RMK A01 T00340016  RH  088%=      5-min Rain = 0
KOD1 291006Z 27004KT 03/02 A301 RMK A01 T00340016  RH  088%=      5-min Rain = 0
KOD1 291007Z 27004KT 03/02 A301 RMK A01 T00340016  RH  088%=      5-min Rain = 0
KOD1 291008Z 28004KT 03/02 A301 RMK A01 T00340016  RH  088%=      5-min Rain = 0
KOD1 291009Z 28004KT 04/02 A301 RMK A01 T00350017  RH  088%=      5-min Rain = 0
KOD1 291010Z 28005KT 04/02 A301 RMK A01 T00350017  RH  088%=      5-min Rain = 0
KOD1 291011Z 28005KT 04/02 A301 RMK A01 T00360018  RH  088%=      5-min Rain = 0
KOD1 291012Z 28005KT 04/02 A301 RMK A01 T00360017  RH  088%=      5-min Rain = 0
KOD1 291013Z 29005KT 04/02 A301 RMK A01 T00360017  RH  087%=      5-min Rain = 0
KOD1 291014Z 29005KT 04/02 A301 RMK A01 T00350016  RH  087%=      5-min Rain = 0
KOD1 291015Z 29005KT 04/02 A301 RMK A01 T00350016  RH  087%=      5-min Rain = 0
KOD1 291016Z 29005KT 04/02 A301 RMK A01 T00350017  RH  087%=      5-min Rain = 0
KOD1 291017Z 29005KT 04/02 A301 RMK A01 T00350016  RH  087%=      5-min Rain = 0
KOD1 291018Z 29005KT 04/02 A301 RMK A01 T00350016  RH  088%=      5-min Rain = 0
KOD1 291019Z 29005KT 04/02 A301 RMK A01 T00350016  RH  088%=      5-min Rain = 0
KOD1 291020Z 29004KT 03/02 A301 RMK A01 T00340016  RH  088%=      5-min Rain = 0
KOD1 291021Z 29004KT 03/02 A301 RMK A01 T00340016  RH  088%=      5-min Rain = 0
KOD1 291022Z 29004KT 03/02 A301 RMK A01 T00340015  RH  088%=      5-min Rain = 0
KOD1 291023Z 29004KT 03/02 A301 RMK A01 T00340015  RH  088%=      5-min Rain = 0
KOD1 291024Z 29004KT 03/02 A301 RMK A01 T00330015  RH  088%=      5-min Rain = 0
KOD1 291025Z 29004KT 03/02 A301 RMK A01 T00330015  RH  088%=      5-min Rain = 0
KOD1 291026Z 29004KT 03/01 A301 RMK A01 T00320014  RH  088%=      5-min Rain = 0
KOD1 291027Z 28004KT 03/01 A301 RMK A01 T00310014  RH  088%=      5-min Rain = 0
KOD1 291028Z 28004KT 03/01 A301 RMK A01 T00310013  RH  088%=      5-min Rain = 0
KOD1 291029Z 28004KT 03/01 A301 RMK A01 T00300013  RH  089%=      5-min Rain = 0
KOD1 291030Z 28004KT 03/01 A3011 RMK A01 T00300013  RH  089%=      5-min Rain = 0
KOD1 291031Z 28004KT 03/01 A3011 RMK A01 T00290013  RH  089%=      5-min Rain = 0
KOD1 291032Z 29004KT 03/01 A3011 RMK A01 T00290013  RH  089%=      5-min Rain = 0
KOD1 291033Z 29004KT 03/01 A3011 RMK A01 T00290013  RH  089%=      5-min Rain = 0
KOD1 291034Z 30004KT 03/01 A301 RMK A01 T00290013  RH  090%=      5-min Rain = 0
KOD1 291035Z 30004KT 03/01 A301 RMK A01 T00290014  RH  090%=      5-min Rain = 0
KOD1 291036Z 30005KT 03/01 A301 RMK A01 T00290014  RH  090%=      5-min Rain = 0
KOD1 291037Z 30006KT 03/01 A301 RMK A01 T00290014  RH  090%=      5-min Rain = 0
KOD1 291038Z 30006KT 03/01 A301 RMK A01 T00290013  RH  090%=      5-min Rain = 0
KOD1 291039Z 30006KT 03/01 A301 RMK A01 T00290014  RH  090%=      5-min Rain = 0
KOD1 291040Z 30007KT 03/02 A301 RMK A01 T00300015  RH  090%=      5-min Rain = 0
KOD1 291041Z 31007KT 03/02 A301 RMK A01 T00300015  RH  090%=      5-min Rain = 0
KOD1 291042Z 31007KT 03/01 A301 RMK A01 T00300014  RH  090%=      5-min Rain = 0
KOD1 291043Z 31006KT 03/01 A301 RMK A01 T00290014  RH  090%=      5-min Rain = 0
KOD1 291044Z 31006KT 03/02 A301 RMK A01 T00300015  RH  090%=      5-min Rain = 0
KOD1 291045Z 31006KT 03/02 A301 RMK A01 T00300015  RH  090%=      5-min Rain = 0
KOD1 291046Z 31005KT 03/01 A301 RMK A01 T00300014  RH  090%=      5-min Rain = 0
KOD1 291047Z 31004KT 03/01 A301 RMK A01 T00300014  RH  090%=      5-min Rain = 0
KOD1 291048Z 31004KT 03/01 A301 RMK A01 T00300014  RH  090%=      5-min Rain = 0
KOD1 291049Z 30003KT 03/02 A301 RMK A01 T00300015  RH  090%=      5-min Rain = 0
KOD1 291050Z 30003KT 03/02 A301 RMK A01 T00300015  RH  090%=      5-min Rain = 0
KOD1 291051Z 30003KT 03/02 A301 RMK A01 T00300015  RH  090%=      5-min Rain = 0
KOD1 291052Z 30003KT 03/02 A301 RMK A01 T00300015  RH  090%=      5-min Rain = 0
KOD1 291053Z 30002KT 03/01 A301 RMK A01 T00300014  RH  090%=      5-min Rain = 0
KOD1 291054Z 30002KT 03/01 A301 RMK A01 T00300014  RH  090%=      5-min Rain = 0
KOD1 291055Z 30002KT 03/02 A301 RMK A01 T00300015  RH  090%=      5-min Rain = 0
KOD1 291056Z 30002KT 03/02 A301 RMK A01 T00300015  RH  090%=      5-min Rain = 0
KOD1 291057Z 29002KT 03/02 A301 RMK A01 T00300015  RH  090%=      5-min Rain = 0
KOD1 291058Z 28002KT 03/02 A301 RMK A01 T00310016  RH  090%=      5-min Rain = 0
KOD1 291059Z 28002KT 03/02 A301 RMK A01 T00310016  RH  090%=      5-min Rain = 0
KOD1 291100Z 28002KT 03/02 A3011 RMK A01 T00320016  RH  089%=      5-min Rain = 0
KOD1 291101Z 28002KT 03/02 A3011 RMK A01 T00320016  RH  089%=      5-min Rain = 0
KOD1 291102Z 28002KT 03/02 A3011 RMK A01 T00320016  RH  089%=      5-min Rain = 0
KOD1 291103Z 28002KT 03/02 A3011 RMK A01 T00330016  RH  089%=      5-min Rain = 0
KOD1 291104Z 28002KT 03/02 A3011 RMK A01 T00330016  RH  089%=      5-min Rain = 0
KOD1 291105Z 28002KT 03/02 A3011 RMK A01 T00330016  RH  088%=      5-min Rain = 0
KOD1 291106Z 27002KT 03/02 A3011 RMK A01 T00330015  RH  088%=      5-min Rain = 0
KOD1 291107Z 28002KT 03/02 A3011 RMK A01 T00330015  RH  088%=      5-min Rain = 0
KOD1 291108Z 28002KT 03/02 A3011 RMK A01 T00330016  RH  088%=      5-min Rain = 0
KOD1 291109Z 28002KT 03/02 A3011 RMK A01 T00330015  RH  088%=      5-min Rain = 0
KOD1 291110Z 27002KT 03/02 A3011 RMK A01 T00340015  RH  088%=      5-min Rain = 0
KOD1 291111Z 27002KT 03/02 A3011 RMK A01 T00330015  RH  088%=      5-min Rain = 0
KOD1 291112Z 26002KT 03/02 A3011 RMK A01 T00340015  RH  088%=      5-min Rain = 0
KOD1 291113Z 26002KT 03/02 A3011 RMK A01 T00340016  RH  088%=      5-min Rain = 0
KOD1 291114Z 26002KT 03/02 A3011 RMK A01 T00340016  RH  088%=      5-min Rain = 0
KOD1 291115Z 26003KT 03/02 A3011 RMK A01 T00340016  RH  088%=      5-min Rain = 0
KOD1 291116Z 27004KT 03/02 A3011 RMK A01 T00340016  RH  088%=      5-min Rain = 0
KOD1 291117Z 27004KT 03/02 A3011 RMK A01 T00340015  RH  088%=      5-min Rain = 0
KOD1 291118Z 27004KT 03/02 A3011 RMK A01 T00330015  RH  088%=      5-min Rain = 0
KOD1 291119Z 28004KT 03/02 A3011 RMK A01 T00330015  RH  088%=      5-min Rain = 0
KOD1 291120Z 28004KT 03/01 A3011 RMK A01 T00320014  RH  088%=      5-min Rain = 0
KOD1 291121Z 28004KT 03/02 A3011 RMK A01 T00320015  RH  088%=      5-min Rain = 0
KOD1 291122Z 28004KT 03/02 A3011 RMK A01 T00320015  RH  089%=      5-min Rain = 0
KOD1 291123Z 28004KT 03/02 A3011 RMK A01 T00330016  RH  089%=      5-min Rain = 0
KOD1 291124Z 28004KT 03/02 A3011 RMK A01 T00340016  RH  088%=      5-min Rain = 0
KOD1 291125Z 28004KT 03/02 A3011 RMK A01 T00340016  RH  088%=      5-min Rain = 0
KOD1 291126Z 28004KT 03/02 A3011 RMK A01 T00340015  RH  087%=      5-min Rain = 0
KOD1 291127Z 29004KT 03/02 A3011 RMK A01 T00340015  RH  087%=      5-min Rain = 0
KOD1 291128Z 29003KT 03/01 A3011 RMK A01 T00340014  RH  087%=      5-min Rain = 0
KOD1 291129Z 30003KT 03/01 A3011 RMK A01 T00330014  RH  087%=      5-min Rain = 0
KOD1 291130Z 29003KT 03/01 A3011 RMK A01 T00330014  RH  087%=      5-min Rain = 0
KOD1 291131Z 29003KT 03/01 A3011 RMK A01 T00320014  RH  088%=      5-min Rain = 0
KOD1 291132Z 29003KT 03/01 A3011 RMK A01 T00320014  RH  088%=      5-min Rain = 0
KOD1 291133Z 29003KT 03/01 A3011 RMK A01 T00320014  RH  088%=      5-min Rain = 0
KOD1 291134Z 29003KT 03/01 A3011 RMK A01 T00320013  RH  088%=      5-min Rain = 0
KOD1 291135Z 29002KT 03/01 A3011 RMK A01 T00310013  RH  087%=      5-min Rain = 0
KOD1 291136Z 28002KT 03/01 A3011 RMK A01 T00320013  RH  087%=      5-min Rain = 0
KOD1 291137Z 29002KT 03/01 A3011 RMK A01 T00310012  RH  087%=      5-min Rain = 0
KOD1 291138Z 29002KT 03/01 A3011 RMK A01 T00310012  RH  088%=      5-min Rain = 0
KOD1 291139Z 30002KT 03/01 A3011 RMK A01 T00310012  RH  088%=      5-min Rain = 0
KOD1 291140Z 30003KT 03/01 A3011 RMK A01 T00320013  RH  088%=      5-min Rain = 0
KOD1 291141Z 30003KT 03/01 A3011 RMK A01 T00330014  RH  088%=      5-min Rain = 0
KOD1 291142Z 30003KT 03/02 A3011 RMK A01 T00330015  RH  088%=      5-min Rain = 0
KOD1 291143Z 31003KT 03/02 A3011 RMK A01 T00340015  RH  088%=      5-min Rain = 0
KOD1 291144Z 32002KT 03/02 A3011 RMK A01 T00340015  RH  087%=      5-min Rain = 0
KOD1 291145Z 32002KT 03/01 A3012 RMK A01 T00340014  RH  087%=      5-min Rain = 0
KOD1 291146Z 33002KT 03/01 A3012 RMK A01 T00340014  RH  087%=      5-min Rain = 0
KOD1 291147Z 33002KT 03/01 A3012 RMK A01 T00340014  RH  087%=      5-min Rain = 0
KOD1 291148Z 33002KT 03/01 A3012 RMK A01 T00340014  RH  087%=      5-min Rain = 0
KOD1 291149Z 32002KT 03/01 A3012 RMK A01 T00340014  RH  087%=      5-min Rain = 0
KOD1 291150Z 32002KT 03/01 A3012 RMK A01 T00340013  RH  087%=      5-min Rain = 0
KOD1 291151Z 31002KT 03/01 A3012 RMK A01 T00330013  RH  087%=      5-min Rain = 0
KOD1 291152Z 30002KT 03/01 A3012 RMK A01 T00330013  RH  087%=      5-min Rain = 0
KOD1 291153Z 29001KT 03/01 A3012 RMK A01 T00330013  RH  087%=      5-min Rain = 0
KOD1 291154Z 26001KT 03/01 A3012 RMK A01 T00320012  RH  087%=      5-min Rain = 0
KOD1 291155Z 23001KT 03/01 A3013 RMK A01 T00320012  RH  087%=      5-min Rain = 0
KOD1 291156Z 23001KT 03/01 A3013 RMK A01 T00320014  RH  088%=      5-min Rain = 0
KOD1 291157Z 23001KT 03/02 A3013 RMK A01 T00320016  RH  089%=      5-min Rain = 0
KOD1 291158Z 25002KT 03/02 A3013 RMK A01 T00330017  RH  089%=      5-min Rain = 0
KOD1 291159Z 25002KT 03/02 A3013 RMK A01 T00330018  RH  090%=      5-min Rain = 0
KOD1 291200Z 25002KT 03/02 A3013 RMK A01 T00340018  RH  090%=      5-min Rain = 0
KOD1 291201Z 25002KT 03/02 A3013 RMK A01 T00340018  RH  090%=      5-min Rain = 0
KOD1 291202Z 24002KT 03/02 A3013 RMK A01 T00340019  RH  090%=      5-min Rain = 0
KOD1 291203Z 25002KT 03/02 A3013 RMK A01 T00340018  RH  089%=      5-min Rain = 0
KOD1 291204Z 25002KT 03/02 A3013 RMK A01 T00340018  RH  089%=      5-min Rain = 0
KOD1 291205Z 25002KT 03/02 A3013 RMK A01 T00340018  RH  089%=      5-min Rain = 0
KOD1 291206Z 26002KT 03/02 A3013 RMK A01 T00340018  RH  089%=      5-min Rain = 0
KOD1 291207Z 26002KT 03/02 A3014 RMK A01 T00340018  RH  089%=      5-min Rain = 0
KOD1 291208Z 26002KT 03/02 A3014 RMK A01 T00340017  RH  089%=      5-min Rain = 0
KOD1 291209Z 25002KT 03/02 A3014 RMK A01 T00330016  RH  089%=      5-min Rain = 0
KOD1 291210Z 24002KT 03/02 A3014 RMK A01 T00330017  RH  089%=      5-min Rain = 0
KOD1 291211Z 23002KT 03/02 A3014 RMK A01 T00320017  RH  090%=      5-min Rain = 0
KOD1 291212Z 23002KT 03/02 A3014 RMK A01 T00320018  RH  090%=      5-min Rain = 0
KOD1 291213Z 22003KT 03/02 A3014 RMK A01 T00320018  RH  090%=      5-min Rain = 0
KOD1 291214Z 22003KT 03/02 A3014 RMK A01 T00330019  RH  091%=      5-min Rain = 0
KOD1 291215Z 22003KT 03/02 A3014 RMK A01 T00340021  RH  091%=      5-min Rain = 0
KOD1 291216Z 21003KT 04/02 A3014 RMK A01 T00350022  RH  092%=      5-min Rain = 0
KOD1 291217Z 21004KT 04/02 A3015 RMK A01 T00350023  RH  092%=      5-min Rain = 0
KOD1 291218Z 21004KT 04/02 A3015 RMK A01 T00360023  RH  091%=      5-min Rain = 0
KOD1 291219Z 21004KT 04/02 A3015 RMK A01 T00360023  RH  091%=      5-min Rain = 0
KOD1 291220Z 21004KT 04/02 A3015 RMK A01 T00360022  RH  091%=      5-min Rain = 0
KOD1 291221Z 21004KT 04/02 A3015 RMK A01 T00360021  RH  090%=      5-min Rain = 0
KOD1 291222Z 21004KT 04/02 A3015 RMK A01 T00360020  RH  089%=      5-min Rain = 0
KOD1 291223Z 21004KT 04/02 A3015 RMK A01 T00360020  RH  089%=      5-min Rain = 0
KOD1 291224Z 21004KT 04/02 A3015 RMK A01 T00370020  RH  089%=      5-min Rain = 0
KOD1 291225Z 21004KT 04/02 A3015 RMK A01 T00370020  RH  089%=      5-min Rain = 0
KOD1 291226Z 22003KT 04/02 A3015 RMK A01 T00370020  RH  089%=      5-min Rain = 0
KOD1 291227Z 22003KT 04/02 A3015 RMK A01 T00370020  RH  089%=      5-min Rain = 0
KOD1 291228Z 23004KT 04/02 A3015 RMK A01 T00370020  RH  089%=      5-min Rain = 0
KOD1 291229Z 23004KT 04/02 A3015 RMK A01 T00370021  RH  089%=      5-min Rain = 0
KOD1 291230Z 23004KT 04/02 A3015 RMK A01 T00370021  RH  089%=      5-min Rain = 0
KOD1 291231Z 23004KT 04/02 A3015 RMK A01 T00370021  RH  089%=      5-min Rain = 0
KOD1 291232Z 24004KT 04/02 A3015 RMK A01 T00370020  RH  089%=      5-min Rain = 0
KOD1 291233Z 23004KT 04/02 A3015 RMK A01 T00360020  RH  089%=      5-min Rain = 0
KOD1 291234Z 23004KT 04/02 A3015 RMK A01 T00360020  RH  089%=      5-min Rain = 0
KOD1 291235Z 24004KT 04/02 A3015 RMK A01 T00360020  RH  089%=      5-min Rain = 0
KOD1 291236Z 24004KT 04/02 A3015 RMK A01 T00360021  RH  090%=      5-min Rain = 0
KOD1 291237Z 24004KT 04/02 A3015 RMK A01 T00360021  RH  090%=      5-min Rain = 0
KOD1 291238Z 24004KT 04/02 A3015 RMK A01 T00360021  RH  090%=      5-min Rain = 0
KOD1 291239Z 24004KT 04/02 A3015 RMK A01 T00360021  RH  090%=      5-min Rain = 0
KOD1 291240Z 25004KT 04/02 A3016 RMK A01 T00360021  RH  090%=      5-min Rain = 0
KOD1 291241Z 25004KT 04/02 A3016 RMK A01 T00360021  RH  090%=      5-min Rain = 0
KOD1 291242Z 25004KT 04/02 A3016 RMK A01 T00360021  RH  090%=      5-min Rain = 0
KOD1 291243Z 25004KT 04/02 A3016 RMK A01 T00360021  RH  090%=      5-min Rain = 0
KOD1 291244Z 25004KT 04/02 A3016 RMK A01 T00360021  RH  090%=      5-min Rain = 0
KOD1 291245Z 24004KT 04/02 A3016 RMK A01 T00360021  RH  090%=      5-min Rain = 0
KOD1 291246Z 24004KT 04/02 A3016 RMK A01 T00360021  RH  090%=      5-min Rain = 0
KOD1 291247Z 24004KT 04/02 A3016 RMK A01 T00360021  RH  090%=      5-min Rain = 0
KOD1 291248Z 24004KT 04/02 A3016 RMK A01 T00360021  RH  090%=      5-min Rain = 0
KOD1 291249Z 24004KT 04/02 A3016 RMK A01 T00360022  RH  090%=      5-min Rain = 0
KOD1 291250Z 24004KT 04/02 A3017 RMK A01 T00370022  RH  090%=      5-min Rain = 0
KOD1 291251Z 24004KT 04/02 A3017 RMK A01 T00380023  RH  090%=      5-min Rain = 0
KOD1 291252Z 24004KT 04/02 A3017 RMK A01 T00380024  RH  090%=      5-min Rain = 0
KOD1 291253Z 25004KT 04/02 A3017 RMK A01 T00390023  RH  090%=      5-min Rain = 0
KOD1 291254Z 25004KT 04/02 A3017 RMK A01 T00390023  RH  089%=      5-min Rain = 0
KOD1 291255Z 25004KT 04/02 A3017 RMK A01 T00390023  RH  089%=      5-min Rain = 0
KOD1 291256Z 25004KT 04/02 A3017 RMK A01 T00390023  RH  089%=      5-min Rain = 0
KOD1 291257Z 25004KT 04/02 A3017 RMK A01 T00390023  RH  089%=      5-min Rain = 0
KOD1 291258Z 24005KT 04/02 A3017 RMK A01 T00400023  RH  089%=      5-min Rain = 0
KOD1 291259Z 24005KT 04/02 A3017 RMK A01 T00400023  RH  089%=      5-min Rain = 0
KOD1 291300Z 25005KT 04/02 A3017 RMK A01 T00410024  RH  089%=      5-min Rain = 0
KOD1 291301Z 25005KT 04/02 A3017 RMK A01 T00410024  RH  089%=      5-min Rain = 0
KOD1 291302Z 25005KT 04/02 A3018 RMK A01 T00420024  RH  088%=      5-min Rain = 0
KOD1 291303Z 25005KT 04/03 A3018 RMK A01 T00430025  RH  088%=      5-min Rain = 0
KOD1 291304Z 25004KT 04/03 A3018 RMK A01 T00430025  RH  088%=      5-min Rain = 0
KOD1 291305Z 24004KT 04/03 A3018 RMK A01 T00440026  RH  088%=      5-min Rain = 0
KOD1 291306Z 24004KT 04/03 A3018 RMK A01 T00440025  RH  088%=      5-min Rain = 0
KOD1 291307Z 24005KT 05/03 A3018 RMK A01 T00450025  RH  087%=      5-min Rain = 0
KOD1 291308Z 24004KT 05/03 A3018 RMK A01 T00460025  RH  087%=      5-min Rain = 0
KOD1 291309Z 24004KT 05/03 A3018 RMK A01 T00460025  RH  086%=      5-min Rain = 0
KOD1 291310Z 24004KT 05/02 A3018 RMK A01 T00470024  RH  085%=      5-min Rain = 0
KOD1 291311Z 24004KT 05/02 A3018 RMK A01 T00470024  RH  085%=      5-min Rain = 0
KOD1 291312Z 24004KT 05/03 A3018 RMK A01 T00480025  RH  085%=      5-min Rain = 0
KOD1 291313Z 24004KT 05/03 A3018 RMK A01 T00480025  RH  085%=      5-min Rain = 0
KOD1 291314Z 24004KT 05/03 A3018 RMK A01 T00490025  RH  085%=      5-min Rain = 0
KOD1 291315Z 24004KT 05/03 A3018 RMK A01 T00490025  RH  085%=      5-min Rain = 0
KOD1 291316Z 24004KT 05/02 A3018 RMK A01 T00490024  RH  084%=      5-min Rain = 0
KOD1 291317Z 24005KT 05/02 A3018 RMK A01 T00490023  RH  083%=      5-min Rain = 0
KOD1 291318Z 24004KT 05/02 A3019 RMK A01 T00500024  RH  083%=      5-min Rain = 0
KOD1 291319Z 25004KT 05/03 A3019 RMK A01 T00510026  RH  084%=      5-min Rain = 0
KOD1 291320Z 25004KT 05/03 A3019 RMK A01 T00510026  RH  084%=      5-min Rain = 0
KOD1 291321Z 25004KT 05/03 A3019 RMK A01 T00510025  RH  084%=      5-min Rain = 0
KOD1 291322Z 25004KT 05/03 A3019 RMK A01 T00510025  RH  083%=      5-min Rain = 0
KOD1 291323Z 25004KT 05/03 A3019 RMK A01 T00510026  RH  084%=      5-min Rain = 0
KOD1 291324Z 25004KT 05/03 A3019 RMK A01 T00520025  RH  083%=      5-min Rain = 0
KOD1 291325Z 25004KT 05/03 A3019 RMK A01 T00520026  RH  084%=      5-min Rain = 0
KOD1 291326Z 25004KT 05/03 A3019 RMK A01 T00520026  RH  084%=      5-min Rain = 0
KOD1 291327Z 24005KT 05/03 A3019 RMK A01 T00520026  RH  083%=      5-min Rain = 0
KOD1 291328Z 24005KT 05/03 A3019 RMK A01 T00520025  RH  083%=      5-min Rain = 0
KOD1 291329Z 24004KT 05/03 A3019 RMK A01 T00530026  RH  083%=      5-min Rain = 0
KOD1 291330Z 23005KT 05/03 A3019 RMK A01 T00530027  RH  083%=      5-min Rain = 0
KOD1 291331Z 23005KT 05/03 A302 RMK A01 T00530025  RH  082%=      5-min Rain = 0
KOD1 291332Z 24004KT 05/03 A302 RMK A01 T00540026  RH  083%=      5-min Rain = 0
KOD1 291333Z 24004KT 05/03 A302 RMK A01 T00540028  RH  083%=      5-min Rain = 0
KOD1 291334Z 24004KT 05/03 A3019 RMK A01 T00540027  RH  083%=      5-min Rain = 0
KOD1 291335Z 24004KT 05/03 A3019 RMK A01 T00540026  RH  082%=      5-min Rain = 0
KOD1 291336Z 24004KT 05/03 A3019 RMK A01 T00540026  RH  082%=      5-min Rain = 0
KOD1 291337Z 24004KT 05/03 A302 RMK A01 T00540026  RH  082%=      5-min Rain = 0
KOD1 291338Z 25004KT 05/03 A302 RMK A01 T00540026  RH  082%=      5-min Rain = 0
KOD1 291339Z 25004KT 06/03 A302 RMK A01 T00550029  RH  083%=      5-min Rain = 0
KOD1 291340Z 25004KT 06/03 A302 RMK A01 T00560029  RH  083%=      5-min Rain = 0
KOD1 291341Z 25004KT 06/03 A302 RMK A01 T00560030  RH  083%=      5-min Rain = 0
KOD1 291342Z 24004KT 06/03 A302 RMK A01 T00560030  RH  083%=      5-min Rain = 0
KOD1 291343Z 25004KT 06/03 A302 RMK A01 T00570031  RH  083%=      5-min Rain = 0
KOD1 291344Z 24004KT 06/03 A302 RMK A01 T00570030  RH  083%=      5-min Rain = 0
KOD1 291345Z 25004KT 06/03 A302 RMK A01 T00570029  RH  082%=      5-min Rain = 0
KOD1 291346Z 25004KT 06/03 A302 RMK A01 T00570028  RH  082%=      5-min Rain = 0
KOD1 291347Z 25005KT 06/03 A302 RMK A01 T00570030  RH  083%=      5-min Rain = 0
KOD1 291348Z 25004KT 06/03 A302 RMK A01 T00570030  RH  083%=      5-min Rain = 0
KOD1 291349Z 25005KT 06/03 A302 RMK A01 T00580031  RH  083%=      5-min Rain = 0
KOD1 291350Z 25004KT 06/03 A302 RMK A01 T00570028  RH  081%=      5-min Rain = 0
KOD1 291351Z 25004KT 06/03 A3021 RMK A01 T00580029  RH  082%=      5-min Rain = 0
KOD1 291352Z 25004KT 06/03 A3021 RMK A01 T00580030  RH  082%=      5-min Rain = 0
KOD1 291353Z 25004KT 06/03 A3021 RMK A01 T00590031  RH  082%=      5-min Rain = 0
KOD1 291354Z 25004KT 06/03 A3021 RMK A01 T00590031  RH  082%=      5-min Rain = 0
KOD1 291355Z 25004KT 06/03 A3021 RMK A01 T00590030  RH  082%=      5-min Rain = 0
KOD1 291356Z 25004KT 06/03 A3021 RMK A01 T00600033  RH  083%=      5-min Rain = 0
KOD1 291357Z 25004KT 06/04 A3021 RMK A01 T00610035  RH  083%=      5-min Rain = 0
KOD1 291358Z 24004KT 06/04 A3021 RMK A01 T00610036  RH  084%=      5-min Rain = 0
KOD1 291359Z 24005KT 06/04 A3021 RMK A01 T00620036  RH  083%=      5-min Rain = 0
KOD1 291400Z 24005KT 06/03 A3021 RMK A01 T00620033  RH  082%=      5-min Rain = 0
KOD1 291401Z 25005KT 06/03 A3021 RMK A01 T00620031  RH  081%=      5-min Rain = 0
KOD1 291402Z 25005KT 06/03 A3021 RMK A01 T00620031  RH  080%=      5-min Rain = 0
KOD1 291403Z 25005KT 06/03 A3022 RMK A01 T00630032  RH  080%=      5-min Rain = 0
KOD1 291404Z 26004KT 06/03 A3022 RMK A01 T00630031  RH  080%=      5-min Rain = 0
KOD1 291405Z 25005KT 06/03 A3022 RMK A01 T00640032  RH  080%=      5-min Rain = 0
KOD1 291406Z 25004KT 06/03 A3022 RMK A01 T00640032  RH  080%=      5-min Rain = 0
KOD1 291407Z 25004KT 07/03 A3022 RMK A01 T00650033  RH  080%=      5-min Rain = 0
KOD1 291408Z 25005KT 07/04 A3022 RMK A01 T00660036  RH  081%=      5-min Rain = 0
KOD1 291409Z 25005KT 07/04 A3022 RMK A01 T00670037  RH  081%=      5-min Rain = 0
KOD1 291410Z 25005KT 07/04 A3022 RMK A01 T00670035  RH  080%=      5-min Rain = 0
KOD1 291411Z 25004KT 07/03 A3022 RMK A01 T00660033  RH  079%=      5-min Rain = 0
KOD1 291412Z 24005KT 07/04 A3022 RMK A01 T00670037  RH  081%=      5-min Rain = 0
KOD1 291413Z 25005KT 07/04 A3022 RMK A01 T00670036  RH  080%=      5-min Rain = 0
KOD1 291414Z 25004KT 07/04 A3022 RMK A01 T00680038  RH  081%=      5-min Rain = 0
KOD1 291415Z 25005KT 07/04 A3022 RMK A01 T00680036  RH  080%=      5-min Rain = 0
KOD1 291416Z 26005KT 07/03 A3022 RMK A01 T00680034  RH  079%=      5-min Rain = 0
KOD1 291417Z 26004KT 07/03 A3022 RMK A01 T00690034  RH  079%=      5-min Rain = 0
KOD1 291418Z 26004KT 07/04 A3023 RMK A01 T00710039  RH  081%=      5-min Rain = 0
KOD1 291419Z 27004KT 07/04 A3023 RMK A01 T00720039  RH  079%=      5-min Rain = 0
KOD1 291420Z 25005KT 07/04 A3023 RMK A01 T00730037  RH  078%=      5-min Rain = 0
KOD1 291421Z 25005KT 07/04 A3023 RMK A01 T00730036  RH  077%=      5-min Rain = 0
KOD1 291422Z 25005KT 07/04 A3023 RMK A01 T00730037  RH  078%=      5-min Rain = 0
KOD1 291423Z 25005KT 07/04 A3023 RMK A01 T00730035  RH  077%=      5-min Rain = 0
KOD1 291424Z 25005KT 07/03 A3023 RMK A01 T00730033  RH  076%=      5-min Rain = 0
KOD1 291425Z 25005KT 07/04 A3023 RMK A01 T00730035  RH  077%=      5-min Rain = 0
KOD1 291426Z 25005KT 07/04 A3023 RMK A01 T00740038  RH  078%=      5-min Rain = 0
KOD1 291427Z 25005KT 08/04 A3023 RMK A01 T00750038  RH  078%=      5-min Rain = 0
KOD1 291428Z 25005KT 07/04 A3023 RMK A01 T00740036  RH  077%=      5-min Rain = 0
KOD1 291429Z 25005KT 07/04 A3023 RMK A01 T00740037  RH  077%=      5-min Rain = 0
KOD1 291430Z 24005KT 08/04 A3023 RMK A01 T00750037  RH  077%=      5-min Rain = 0
KOD1 291431Z 24005KT 08/04 A3023 RMK A01 T00750038  RH  077%=      5-min Rain = 0
KOD1 291432Z 25005KT 08/04 A3023 RMK A01 T00760037  RH  077%=      5-min Rain = 0
KOD1 291433Z 25005KT 08/04 A3023 RMK A01 T00760036  RH  076%=      5-min Rain = 0
KOD1 291434Z 25004KT 08/04 A3023 RMK A01 T00760038  RH  077%=      5-min Rain = 0
KOD1 291435Z 25005KT 08/04 A3023 RMK A01 T00780042  RH  078%=      5-min Rain = 0
KOD1 291436Z 25005KT 08/04 A3024 RMK A01 T00780037  RH  076%=      5-min Rain = 0
KOD1 291437Z 25004KT 08/04 A3024 RMK A01 T00780037  RH  075%=      5-min Rain = 0
KOD1 291438Z 25004KT 08/04 A3024 RMK A01 T00790042  RH  077%=      5-min Rain = 0
KOD1 291439Z 25005KT 08/04 A3024 RMK A01 T00800042  RH  077%=      5-min Rain = 0
KOD1 291440Z 25005KT 08/04 A3024 RMK A01 T00790038  RH  075%=      5-min Rain = 0
KOD1 291441Z 25004KT 08/04 A3024 RMK A01 T00790040  RH  076%=      5-min Rain = 0
KOD1 291442Z 26004KT 08/04 A3024 RMK A01 T00800040  RH  076%=      5-min Rain = 0
KOD1 291443Z 26004KT 08/04 A3024 RMK A01 T00800040  RH  076%=      5-min Rain = 0
KOD1 291444Z 25004KT 08/04 A3024 RMK A01 T00810041  RH  076%=      5-min Rain = 0
KOD1 291445Z 25004KT 08/04 A3024 RMK A01 T00820040  RH  075%=      5-min Rain = 0
KOD1 291446Z 25004KT 08/04 A3024 RMK A01 T00830041  RH  075%=      5-min Rain = 0
KOD1 291447Z 26004KT 08/04 A3024 RMK A01 T00840040  RH  074%=      5-min Rain = 0
KOD1 291448Z 26004KT 09/04 A3024 RMK A01 T00850041  RH  074%=      5-min Rain = 0
KOD1 291449Z 26004KT 09/04 A3024 RMK A01 T00850042  RH  074%=      5-min Rain = 0
KOD1 291450Z 25004KT 09/04 A3024 RMK A01 T00860041  RH  074%=      5-min Rain = 0
KOD1 291451Z 24004KT 09/04 A3024 RMK A01 T00850039  RH  073%=      5-min Rain = 0
KOD1 291452Z 25004KT 09/04 A3024 RMK A01 T00850040  RH  073%=      5-min Rain = 0
KOD1 291453Z 26004KT 09/04 A3024 RMK A01 T00850042  RH  074%=      5-min Rain = 0
KOD1 291454Z 23004KT 09/04 A3024 RMK A01 T00850042  RH  074%=      5-min Rain = 0
KOD1 291455Z 23004KT 09/04 A3024 RMK A01 T00850042  RH  074%=      5-min Rain = 0
KOD1 291456Z 24004KT 09/04 A3024 RMK A01 T00860043  RH  074%=      5-min Rain = 0
KOD1 291457Z 25004KT 09/04 A3025 RMK A01 T00870043  RH  074%=      5-min Rain = 0
KOD1 291458Z 25004KT 09/04 A3025 RMK A01 T00870041  RH  073%=      5-min Rain = 0
KOD1 291459Z 25004KT 09/04 A3024 RMK A01 T00870043  RH  074%=      5-min Rain = 0
KOD1 291500Z 26004KT 09/04 A3024 RMK A01 T00880043  RH  073%=      5-min Rain = 0
KOD1 291501Z 26003KT 09/04 A3024 RMK A01 T00870040  RH  072%=      5-min Rain = 0
KOD1 291502Z 26002KT 09/04 A3024 RMK A01 T00880043  RH  073%=      5-min Rain = 0
KOD1 291503Z 27003KT 09/04 A3024 RMK A01 T00890042  RH  072%=      5-min Rain = 0
KOD1 291504Z 25003KT 09/04 A3024 RMK A01 T00890042  RH  072%=      5-min Rain = 0
KOD1 291505Z 26002KT 09/04 A3024 RMK A01 T00890043  RH  073%=      5-min Rain = 0
KOD1 291506Z 24002KT 09/04 A3024 RMK A01 T00900043  RH  073%=      5-min Rain = 0
KOD1 291507Z 25003KT 09/05 A3024 RMK A01 T00910046  RH  074%=      5-min Rain = 0
KOD1 291508Z 24003KT 09/05 A3024 RMK A01 T00910048  RH  074%=      5-min Rain = 0
KOD1 291509Z 26003KT 09/05 A3024 RMK A01 T00920047  RH  073%=      5-min Rain = 0
KOD1 291510Z 27003KT 09/04 A3024 RMK A01 T00920044  RH  072%=      5-min Rain = 0
KOD1 291511Z 28002KT 09/05 A3024 RMK A01 T00930047  RH  073%=      5-min Rain = 0
KOD1 291512Z 26003KT 09/05 A3024 RMK A01 T00940048  RH  073%=      5-min Rain = 0
KOD1 291513Z 25002KT 10/05 A3024 RMK A01 T00950046  RH  071%=      5-min Rain = 0
KOD1 291514Z 26003KT 10/05 A3024 RMK A01 T00960045  RH  070%=      5-min Rain = 0
KOD1 291515Z 27003KT 10/05 A3025 RMK A01 T00970047  RH  071%=      5-min Rain = 0
KOD1 291516Z 25003KT 10/05 A3025 RMK A01 T00980045  RH  070%=      5-min Rain = 0
KOD1 291517Z 24002KT 10/04 A3025 RMK A01 T00980044  RH  069%=      5-min Rain = 0
KOD1 291518Z 25003KT 10/05 A3025 RMK A01 T00990046  RH  070%=      5-min Rain = 0
KOD1 291519Z 27003KT 10/05 A3025 RMK A01 T00990045  RH  069%=      5-min Rain = 0
KOD1 291520Z 26002KT 10/04 A3024 RMK A01 T01000042  RH  067%=      5-min Rain = 0
KOD1 291521Z 26002KT 10/04 A3024 RMK A01 T01000044  RH  068%=      5-min Rain = 0
KOD1 291522Z 26002KT 10/05 A3024 RMK A01 T01000048  RH  070%=      5-min Rain = 0
KOD1 291523Z 26003KT 10/05 A3025 RMK A01 T01020047  RH  068%=      5-min Rain = 0
KOD1 291524Z 27003KT 10/05 A3025 RMK A01 T01030045  RH  067%=      5-min Rain = 0
KOD1 291525Z 25002KT 11/05 A3024 RMK A01 T01050049  RH  068%=      5-min Rain = 0
KOD1 291526Z 25003KT 11/05 A3024 RMK A01 T01070051  RH  068%=      5-min Rain = 0
KOD1 291527Z 25003KT 11/05 A3024 RMK A01 T01070045  RH  066%=      5-min Rain = 0
KOD1 291528Z 25003KT 11/05 A3024 RMK A01 T01060047  RH  067%=      5-min Rain = 0
KOD1 291529Z 24003KT 11/05 A3024 RMK A01 T01060048  RH  067%=      5-min Rain = 0
KOD1 291530Z 25002KT 11/05 A3024 RMK A01 T01060048  RH  067%=      5-min Rain = 0
KOD1 291531Z 25002KT 11/05 A3024 RMK A01 T01070048  RH  067%=      5-min Rain = 0
KOD1 291532Z 28002KT 11/05 A3025 RMK A01 T01090050  RH  067%=      5-min Rain = 0
KOD1 291533Z 29003KT 11/05 A3025 RMK A01 T01100049  RH  066%=      5-min Rain = 0
KOD1 291534Z 29004KT 11/05 A3025 RMK A01 T01100050  RH  066%=      5-min Rain = 0
KOD1 291535Z 29003KT 11/05 A3025 RMK A01 T01110051  RH  067%=      5-min Rain = 0
KOD1 291536Z 29004KT 11/04 A3025 RMK A01 T01120044  RH  063%=      5-min Rain = 0
KOD1 291537Z 28004KT 11/05 A3025 RMK A01 T01130045  RH  063%=      5-min Rain = 0
KOD1 291538Z 27003KT 11/04 A3025 RMK A01 T01140039  RH  060%=      5-min Rain = 0
KOD1 291539Z 29003KT 11/04 A3025 RMK A01 T01140040  RH  060%=      5-min Rain = 0
KOD1 291540Z 29002KT 12/04 A3025 RMK A01 T01150042  RH  061%=      5-min Rain = 0
KOD1 291541Z 30003KT 12/04 A3024 RMK A01 T01160042  RH  060%=      5-min Rain = 0
KOD1 291542Z 28003KT 12/04 A3024 RMK A01 T01160043  RH  061%=      5-min Rain = 0
KOD1 291543Z 30002KT 12/05 A3024 RMK A01 T01170045  RH  061%=      5-min Rain = 0
KOD1 291544Z 31003KT 12/04 A3024 RMK A01 T01180044  RH  061%=      5-min Rain = 0
KOD1 291545Z 28004KT 12/04 A3024 RMK A01 T01180040  RH  059%=      5-min Rain = 0
KOD1 291546Z 28004KT 12/04 A3024 RMK A01 T01190036  RH  057%=      5-min Rain = 0
KOD1 291547Z 27003KT 12/03 A3024 RMK A01 T01190034  RH  056%=      5-min Rain = 0
KOD1 291548Z 26001KT 12/04 A3024 RMK A01 T01190035  RH  056%=      5-min Rain = 0
KOD1 291549Z 29002KT 12/04 A3024 RMK A01 T01200037  RH  057%=      5-min Rain = 0
KOD1 291550Z 28002KT 12/04 A3024 RMK A01 T01210036  RH  056%=      5-min Rain = 0
KOD1 291551Z 28003KT 12/04 A3024 RMK A01 T01230041  RH  057%=      5-min Rain = 0
KOD1 291552Z 27004KT 12/04 A3024 RMK A01 T01240043  RH  058%=      5-min Rain = 0
KOD1 291553Z 26004KT 12/04 A3024 RMK A01 T01240038  RH  056%=      5-min Rain = 0
KOD1 291554Z 25002KT 12/04 A3025 RMK A01 T01230038  RH  056%=      5-min Rain = 0
KOD1 291555Z 26004KT 13/04 A3025 RMK A01 T01250041  RH  056%=      5-min Rain = 0
KOD1 291556Z 25003KT 13/04 A3025 RMK A01 T01250037  RH  055%=      5-min Rain = 0
KOD1 291557Z 25006KT 13/04 A3025 RMK A01 T01260040  RH  056%=      5-min Rain = 0
KOD1 291558Z 26004KT 13/04 A3025 RMK A01 T01250035  RH  054%=      5-min Rain = 0
KOD1 291559Z 25002KT 13/03 A3025 RMK A01 T01250034  RH  054%=      5-min Rain = 0
KOD1 291600Z 29003KT 13/03 A3025 RMK A01 T01260032  RH  053%=      5-min Rain = 0
KOD1 291601Z 29001KT 13/03 A3025 RMK A01 T01260033  RH  053%=      5-min Rain = 0
KOD1 291602Z 22002KT 13/04 A3025 RMK A01 T01280040  RH  055%=      5-min Rain = 0
KOD1 291603Z 22004KT 13/04 A3025 RMK A01 T01280039  RH  054%=      5-min Rain = 0
KOD1 291604Z 26004KT 13/04 A3025 RMK A01 T01270037  RH  054%=      5-min Rain = 0
KOD1 291605Z 28002KT 13/04 A3025 RMK A01 T01270035  RH  053%=      5-min Rain = 0
KOD1 291606Z 29003KT 13/04 A3025 RMK A01 T01280036  RH  054%=      5-min Rain = 0
KOD1 291607Z 25003KT 13/04 A3025 RMK A01 T01300038  RH  053%=      5-min Rain = 0
KOD1 291608Z 25003KT 13/04 A3025 RMK A01 T01310037  RH  053%=      5-min Rain = 0
KOD1 291609Z 24002KT 13/03 A3025 RMK A01 T01310033  RH  052%=      5-min Rain = 0
KOD1 291610Z 25003KT 13/03 A3025 RMK A01 T01310034  RH  052%=      5-min Rain = 0
KOD1 291611Z 23003KT 13/03 A3025 RMK A01 T01300032  RH  051%=      5-min Rain = 0
KOD1 291612Z 21005KT 13/03 A3025 RMK A01 T01300034  RH  052%=      5-min Rain = 0
KOD1 291613Z 19004KT 13/03 A3025 RMK A01 T01290029  RH  051%=      5-min Rain = 0
KOD1 291614Z 20002KT 13/03 A3025 RMK A01 T01290030  RH  051%=      5-min Rain = 0
KOD1 291615Z 17003KT 13/03 A3025 RMK A01 T01300032  RH  052%=      5-min Rain = 0
KOD1 291616Z 20003KT 13/03 A3025 RMK A01 T01310033  RH  051%=      5-min Rain = 0
KOD1 291617Z 21002KT 13/03 A3025 RMK A01 T01320030  RH  050%=      5-min Rain = 0
KOD1 291618Z 23003KT 13/03 A3025 RMK A01 T01320029  RH  050%=      5-min Rain = 0
KOD1 291619Z 23003KT 13/03 A3025 RMK A01 T01320030  RH  050%=      5-min Rain = 0
KOD1 291620Z 23001KT 13/03 A3025 RMK A01 T01320028  RH  049%=      5-min Rain = 0
KOD1 291621Z 00000KT 13/03 A3024 RMK A01 T01330026  RH  048%=      5-min Rain = 0
KOD1 291622Z 35000KT 14/03 A3024 RMK A01 T01360026  RH  047%=      5-min Rain = 0
KOD1 291623Z 12000KT 14/02 A3024 RMK A01 T01380024  RH  046%=      5-min Rain = 0
KOD1 291624Z 21003KT 14/03 A3024 RMK A01 T01380025  RH  046%=      5-min Rain = 0
KOD1 291625Z 21003KT 14/03 A3024 RMK A01 T01360025  RH  047%=      5-min Rain = 0
KOD1 291626Z 19003KT 14/03 A3024 RMK A01 T01350025  RH  047%=      5-min Rain = 0
KOD1 291627Z 16003KT 13/03 A3025 RMK A01 T01340026  RH  048%=      5-min Rain = 0
KOD1 291628Z 14002KT 14/03 A3025 RMK A01 T01350025  RH  047%=      5-min Rain = 0
KOD1 291629Z 15001KT 14/03 A3025 RMK A01 T01370026  RH  047%=      5-min Rain = 0
KOD1 291630Z 18002KT 14/03 A3025 RMK A01 T01390027  RH  047%=      5-min Rain = 0
KOD1 291631Z 28001KT 14/03 A3024 RMK A01 T01390025  RH  046%=      5-min Rain = 0
KOD1 291632Z 21002KT 14/02 A3024 RMK A01 T01390023  RH  045%=      5-min Rain = 0
KOD1 291633Z 20003KT 14/02 A3025 RMK A01 T01390022  RH  045%=      5-min Rain = 0
KOD1 291634Z 22002KT 14/02 A3025 RMK A01 T01390022  RH  045%=      5-min Rain = 0
KOD1 291635Z 20004KT 14/03 A3025 RMK A01 T01390031  RH  048%=      5-min Rain = 0
KOD1 291636Z 21003KT 14/03 A3025 RMK A01 T01400033  RH  049%=      5-min Rain = 0
KOD1 291637Z 22002KT 14/03 A3025 RMK A01 T01400031  RH  048%=      5-min Rain = 0
KOD1 291638Z 22002KT 14/03 A3025 RMK A01 T01410030  RH  047%=      5-min Rain = 0
KOD1 291639Z 20003KT 14/03 A3025 RMK A01 T01410029  RH  047%=      5-min Rain = 0
KOD1 291640Z 22003KT 14/03 A3024 RMK A01 T01410033  RH  048%=      5-min Rain = 0
KOD1 291641Z 19002KT 14/03 A3024 RMK A01 T01410031  RH  047%=      5-min Rain = 0
KOD1 291642Z 18002KT 14/03 A3025 RMK A01 T01430032  RH  047%=      5-min Rain = 0
KOD1 291643Z 17002KT 14/03 A3025 RMK A01 T01440030  RH  046%=      5-min Rain = 0
KOD1 291644Z 26002KT 15/04 A3025 RMK A01 T01470036  RH  048%=      5-min Rain = 0
KOD1 291645Z 23002KT 15/03 A3025 RMK A01 T01460030  RH  046%=      5-min Rain = 0
KOD1 291646Z 23003KT 15/03 A3025 RMK A01 T01450030  RH  046%=      5-min Rain = 0
KOD1 291647Z 18003KT 15/03 A3024 RMK A01 T01450028  RH  045%=      5-min Rain = 0
KOD1 291648Z 15005KT 15/03 A3024 RMK A01 T01470029  RH  045%=      5-min Rain = 0
KOD1 291649Z 15005KT 15/03 A3024 RMK A01 T01480026  RH  044%=      5-min Rain = 0
KOD1 291650Z 15003KT 15/02 A3024 RMK A01 T01490024  RH  043%=      5-min Rain = 0
KOD1 291651Z 15001KT 15/02 A3024 RMK A01 T01500020  RH  041%=      5-min Rain = 0
KOD1 291652Z 17002KT 15/02 A3024 RMK A01 T01510024  RH  042%=      5-min Rain = 0
KOD1 291653Z 18001KT 15/03 A3024 RMK A01 T01530026  RH  042%=      5-min Rain = 0
KOD1 291654Z 21003KT 15/03 A3024 RMK A01 T01530027  RH  043%=      5-min Rain = 0
KOD1 291655Z 22004KT 15/04 A3024 RMK A01 T01520035  RH  045%=      5-min Rain = 0
KOD1 291656Z 23004KT 15/03 A3024 RMK A01 T01480028  RH  044%=      5-min Rain = 0
KOD1 291657Z 23003KT 15/03 A3024 RMK A01 T01460032  RH  046%=      5-min Rain = 0
KOD1 291658Z 22003KT 15/03 A3024 RMK A01 T01470030  RH  045%=      5-min Rain = 0
KOD1 291659Z 18001KT 15/03 A3024 RMK A01 T01470028  RH  045%=      5-min Rain = 0
KOD1 291700Z 25002KT 15/03 A3024 RMK A01 T01470027  RH  044%=      5-min Rain = 0
KOD1 291701Z 27001KT 15/03 A3024 RMK A01 T01480027  RH  044%=      5-min Rain = 0
KOD1 291702Z 25000KT 15/03 A3024 RMK A01 T01500032  RH  045%=      5-min Rain = 0
KOD1 291703Z 23002KT 15/03 A3024 RMK A01 T01530033  RH  045%=      5-min Rain = 0
KOD1 291704Z 22002KT 15/04 A3024 RMK A01 T01540035  RH  045%=      5-min Rain = 0
KOD1 291705Z 23003KT 15/03 A3024 RMK A01 T01540032  RH  044%=      5-min Rain = 0
KOD1 291706Z 30002KT 15/03 A3024 RMK A01 T01510029  RH  044%=      5-min Rain = 0
KOD1 291707Z 04001KT 15/02 A3024 RMK A01 T01500022  RH  042%=      5-min Rain = 0
KOD1 291708Z 02000KT 15/03 A3024 RMK A01 T01500025  RH  043%=      5-min Rain = 0
KOD1 291709Z 13001KT 15/03 A3023 RMK A01 T01520026  RH  043%=      5-min Rain = 0
KOD1 291710Z 09001KT 15/03 A3023 RMK A01 T01540027  RH  043%=      5-min Rain = 0
KOD1 291711Z 03003KT 16/03 A3023 RMK A01 T01560027  RH  042%=      5-min Rain = 0
KOD1 291712Z 06003KT 16/03 A3023 RMK A01 T01550028  RH  042%=      5-min Rain = 0
KOD1 291713Z 16003KT 16/03 A3023 RMK A01 T01580033  RH  043%=      5-min Rain = 0
KOD1 291714Z 20002KT 16/03 A3023 RMK A01 T01600032  RH  042%=      5-min Rain = 0
KOD1 291715Z 19003KT 16/03 A3023 RMK A01 T01590027  RH  041%=      5-min Rain = 0
KOD1 291716Z 19002KT 16/03 A3023 RMK A01 T01570032  RH  043%=      5-min Rain = 0
KOD1 291717Z 07001KT 16/04 A3023 RMK A01 T01590036  RH  044%=      5-min Rain = 0
KOD1 291718Z 00000KT 16/03 A3023 RMK A01 T01600030  RH  042%=      5-min Rain = 0
KOD1 291719Z 35002KT 16/04 A3023 RMK A01 T01620036  RH  043%=      5-min Rain = 0
KOD1 291720Z 00002KT 16/03 A3023 RMK A01 T01630032  RH  042%=      5-min Rain = 0
KOD1 291721Z 03002KT 16/03 A3023 RMK A01 T01620031  RH  041%=      5-min Rain = 0
KOD1 291722Z 01003KT 16/03 A3023 RMK A01 T01630032  RH  041%=      5-min Rain = 0
KOD1 291723Z 01002KT 16/03 A3023 RMK A01 T01600025  RH  040%=      5-min Rain = 0
KOD1 291724Z 03000KT 16/03 A3023 RMK A01 T01590030  RH  042%=      5-min Rain = 0
KOD1 291725Z 30000KT 16/03 A3023 RMK A01 T01610034  RH  043%=      5-min Rain = 0
KOD1 291726Z 24000KT 16/03 A3023 RMK A01 T01630027  RH  040%=      5-min Rain = 0
KOD1 291727Z 06002KT 17/03 A3023 RMK A01 T01660028  RH  040%=      5-min Rain = 0
KOD1 291728Z 07003KT 17/03 A3023 RMK A01 T01680026  RH  039%=      5-min Rain = 0
KOD1 291729Z 11002KT 17/02 A3023 RMK A01 T01670020  RH  037%=      5-min Rain = 0
KOD1 291730Z 17001KT 17/02 A3023 RMK A01 T01660024  RH  038%=      5-min Rain = 0
KOD1 291731Z 18002KT 16/02 A3023 RMK A01 T01630022  RH  038%=      5-min Rain = 0
KOD1 291732Z 14004KT 16/02 A3023 RMK A01 T01640022  RH  038%=      5-min Rain = 0
KOD1 291733Z 13005KT 17/02 A3023 RMK A01 T01650017  RH  037%=      5-min Rain = 0
KOD1 291734Z 11009KT 17/02 A3023 RMK A01 T01650016  RH  037%=      5-min Rain = 0
KOD1 291735Z 11007KT 16/01 A3023 RMK A01 T01630013  RH  036%=      5-min Rain = 0
KOD1 291736Z 10004KT 16/01 A3023 RMK A01 T01620011  RH  036%=      5-min Rain = 0
KOD1 291737Z 08005KT 16/01 A3023 RMK A01 T01620013  RH  036%=      5-min Rain = 0
KOD1 291738Z 09003KT 16/01 A3023 RMK A01 T01610010  RH  036%=      5-min Rain = 0
KOD1 291739Z 12003KT 16/01 A3023 RMK A01 T01610011  RH  036%=      5-min Rain = 0
KOD1 291740Z 12000KT 16/02 A3023 RMK A01 T01630017  RH  037%=      5-min Rain = 0
KOD1 291741Z 09002KT 17/02 A3023 RMK A01 T01650020  RH  038%=      5-min Rain = 0
KOD1 291742Z 10005KT 17/02 A3023 RMK A01 T01670022  RH  038%=      5-min Rain = 0
KOD1 291743Z 08006KT 17/02 A3023 RMK A01 T01660020  RH  037%=      5-min Rain = 0
KOD1 291744Z 08006KT 16/02 A3023 RMK A01 T01640017  RH  037%=      5-min Rain = 0
KOD1 291745Z 08004KT 16/02 A3022 RMK A01 T01610015  RH  037%=      5-min Rain = 0
KOD1 291746Z 11004KT 16/02 A3022 RMK A01 T01620022  RH  039%=      5-min Rain = 0
KOD1 291747Z 16003KT 17/02 A3022 RMK A01 T01660023  RH  038%=      5-min Rain = 0
KOD1 291748Z 10003KT 17/02 A3022 RMK A01 T01680023  RH  038%=      5-min Rain = 0
KOD1 291749Z 14004KT 17/02 A3022 RMK A01 T01690024  RH  038%=      5-min Rain = 0
KOD1 291750Z 15004KT 17/02 A3022 RMK A01 T01690018  RH  036%=      5-min Rain = 0
KOD1 291751Z 11005KT 17/02 A3022 RMK A01 T01700021  RH  037%=      5-min Rain = 0
KOD1 291752Z 10006KT 17/02 A3022 RMK A01 T01690020  RH  037%=      5-min Rain = 0
KOD1 291753Z 08004KT 17/02 A3022 RMK A01 T01670019  RH  037%=      5-min Rain = 0
KOD1 291754Z 07003KT 17/02 A3022 RMK A01 T01680024  RH  038%=      5-min Rain = 0
KOD1 291755Z 07001KT 17/02 A3022 RMK A01 T01690020  RH  037%=      5-min Rain = 0
KOD1 291756Z 08003KT 17/02 A3022 RMK A01 T01690017  RH  036%=      5-min Rain = 0
KOD1 291757Z 07005KT 17/01 A3022 RMK A01 T01670013  RH  035%=      5-min Rain = 0
KOD1 291758Z 07004KT 17/02 A3022 RMK A01 T01650015  RH  036%=      5-min Rain = 0
KOD1 291759Z 10006KT 17/02 A3022 RMK A01 T01660024  RH  038%=      5-min Rain = 0
KOD1 291800Z 13005KT 17/02 A3022 RMK A01 T01700021  RH  037%=      5-min Rain = 0
KOD1 291801Z 13002KT 17/02 A3022 RMK A01 T01710015  RH  035%=      5-min Rain = 0
KOD1 291802Z 13002KT 17/02 A3022 RMK A01 T01710015  RH  035%=      5-min Rain = 0
KOD1 291803Z 16003KT 17/02 A3022 RMK A01 T01720019  RH  036%=      5-min Rain = 0
KOD1 291804Z 11002KT 17/03 A3022 RMK A01 T01720028  RH  038%=      5-min Rain = 0
KOD1 291805Z 13003KT 17/03 A3022 RMK A01 T01740034  RH  039%=      5-min Rain = 0
KOD1 291806Z 16002KT 18/03 A3022 RMK A01 T01760027  RH  037%=      5-min Rain = 0
KOD1 291807Z 12002KT 17/02 A3022 RMK A01 T01740023  RH  036%=      5-min Rain = 0
KOD1 291808Z 12005KT 17/03 A3022 RMK A01 T01730029  RH  038%=      5-min Rain = 0
KOD1 291809Z 11005KT 17/03 A3021 RMK A01 T01720026  RH  038%=      5-min Rain = 0
KOD1 291810Z 13005KT 17/03 A3022 RMK A01 T01740030  RH  038%=      5-min Rain = 0
KOD1 291811Z 13003KT 17/03 A3021 RMK A01 T01740025  RH  037%=      5-min Rain = 0
KOD1 291812Z 10004KT 17/03 A3021 RMK A01 T01730026  RH  037%=      5-min Rain = 0
KOD1 291813Z 09005KT 17/03 A3021 RMK A01 T01740027  RH  037%=      5-min Rain = 0
KOD1 291814Z 12005KT 17/03 A3021 RMK A01 T01740027  RH  037%=      5-min Rain = 0
KOD1 291815Z 10003KT 17/02 A3021 RMK A01 T01720016  RH  035%=      5-min Rain = 0
KOD1 291816Z 09006KT 17/02 A3021 RMK A01 T01710023  RH  037%=      5-min Rain = 0
KOD1 291817Z 10006KT 17/02 A3021 RMK A01 T01720024  RH  037%=      5-min Rain = 0
KOD1 291818Z 09006KT 17/03 A3021 RMK A01 T01720025  RH  037%=      5-min Rain = 0
KOD1 291819Z 08005KT 17/03 A3021 RMK A01 T01720028  RH  038%=      5-min Rain = 0
KOD1 291820Z 08005KT 17/03 A302 RMK A01 T01730025  RH  037%=      5-min Rain = 0
KOD1 291821Z 11006KT 17/02 A302 RMK A01 T01740024  RH  037%=      5-min Rain = 0
KOD1 291822Z 11008KT 18/02 A302 RMK A01 T01750022  RH  036%=      5-min Rain = 0
KOD1 291823Z 11006KT 17/02 A302 RMK A01 T01740017  RH  035%=      5-min Rain = 0
KOD1 291824Z 12007KT 17/02 A3021 RMK A01 T01740017  RH  035%=      5-min Rain = 0
KOD1 291825Z 13005KT 17/02 A302 RMK A01 T01740016  RH  035%=      5-min Rain = 0
KOD1 291826Z 11007KT 17/02 A302 RMK A01 T01730022  RH  036%=      5-min Rain = 0
KOD1 291827Z 10007KT 18/03 A302 RMK A01 T01750031  RH  038%=      5-min Rain = 0
KOD1 291828Z 14005KT 18/03 A302 RMK A01 T01770028  RH  037%=      5-min Rain = 0
KOD1 291829Z 14005KT 18/03 A302 RMK A01 T01770029  RH  037%=      5-min Rain = 0
KOD1 291830Z 13005KT 18/03 A302 RMK A01 T01760025  RH  036%=      5-min Rain = 0
KOD1 291831Z 11005KT 18/03 A302 RMK A01 T01760032  RH  038%=      5-min Rain = 0
KOD1 291832Z 09007KT 18/03 A302 RMK A01 T01780031  RH  037%=      5-min Rain = 0
KOD1 291833Z 10007KT 18/03 A302 RMK A01 T01780027  RH  037%=      5-min Rain = 0
KOD1 291834Z 11006KT 17/03 A302 RMK A01 T01740026  RH  037%=      5-min Rain = 0
KOD1 291835Z 06006KT 18/03 A302 RMK A01 T01750029  RH  038%=      5-min Rain = 0
KOD1 291836Z 05004KT 18/03 A302 RMK A01 T01770028  RH  037%=      5-min Rain = 0
KOD1 291837Z 06006KT 18/03 A302 RMK A01 T01790032  RH  038%=      5-min Rain = 0
KOD1 291838Z 06007KT 18/03 A302 RMK A01 T01820029  RH  036%=      5-min Rain = 0
KOD1 291839Z 04005KT 18/03 A302 RMK A01 T01790026  RH  036%=      5-min Rain = 0
KOD1 291840Z 06009KT 18/03 A302 RMK A01 T01780027  RH  036%=      5-min Rain = 0
KOD1 291841Z 08008KT 18/03 A302 RMK A01 T01800030  RH  037%=      5-min Rain = 0
KOD1 291842Z 07006KT 18/03 A302 RMK A01 T01830031  RH  036%=      5-min Rain = 0
KOD1 291843Z 08008KT 18/03 A302 RMK A01 T01830028  RH  035%=      5-min Rain = 0
KOD1 291844Z 09008KT 18/03 A302 RMK A01 T01820031  RH  037%=      5-min Rain = 0
KOD1 291845Z 09008KT 18/03 A302 RMK A01 T01830029  RH  036%=      5-min Rain = 0
KOD1 291846Z 11007KT 18/03 A302 RMK A01 T01810029  RH  036%=      5-min Rain = 0
KOD1 291847Z 10003KT 18/03 A302 RMK A01 T01790025  RH  036%=      5-min Rain = 0
KOD1 291848Z 16004KT 18/03 A302 RMK A01 T01780031  RH  037%=      5-min Rain = 0
KOD1 291849Z 17004KT 18/03 A302 RMK A01 T01780029  RH  037%=      5-min Rain = 0
KOD1 291850Z 14004KT 18/04 A302 RMK A01 T01800036  RH  039%=      5-min Rain = 0
KOD1 291851Z 12001KT 18/02 A302 RMK A01 T01800024  RH  035%=      5-min Rain = 0
KOD1 291852Z 14005KT 18/03 A3019 RMK A01 T01810029  RH  036%=      5-min Rain = 0
KOD1 291853Z 14007KT 18/03 A3019 RMK A01 T01800026  RH  036%=      5-min Rain = 0
KOD1 291854Z 14005KT 18/02 A3019 RMK A01 T01790021  RH  035%=      5-min Rain = 0
KOD1 291855Z 16006KT 18/02 A3019 RMK A01 T01800023  RH  035%=      5-min Rain = 0
KOD1 291856Z 16008KT 18/02 A3019 RMK A01 T01820021  RH  034%=      5-min Rain = 0
KOD1 291857Z 18006KT 18/01 A3019 RMK A01 T01810011  RH  032%=      5-min Rain = 0
KOD1 291858Z 19005KT 18/01 A3019 RMK A01 T01780010  RH  032%=      5-min Rain = 0
KOD1 291859Z 19004KT 18/01 A3019 RMK A01 T01780014  RH  033%=      5-min Rain = 0
KOD1 291900Z 16007KT 18/02 A3019 RMK A01 T01780016  RH  034%=      5-min Rain = 0
KOD1 291901Z 16005KT 18/01 A3019 RMK A01 T01780012  RH  033%=      5-min Rain = 0
KOD1 291902Z 14004KT 18/01 A3019 RMK A01 T01780013  RH  033%=      5-min Rain = 0
KOD1 291903Z 15005KT 18/01 A3019 RMK A01 T01790014  RH  033%=      5-min Rain = 0
KOD1 291904Z 15003KT 18/02 A3019 RMK A01 T01800019  RH  034%=      5-min Rain = 0
KOD1 291905Z 19001KT 18/02 A3019 RMK A01 T01810015  RH  033%=      5-min Rain = 0
KOD1 291906Z 17001KT 18/02 A3019 RMK A01 T01810016  RH  033%=      5-min Rain = 0
KOD1 291907Z 11000KT 18/02 A3019 RMK A01 T01820015  RH  033%=      5-min Rain = 0
KOD1 291908Z 18004KT 18/02 A3019 RMK A01 T01840021  RH  034%=      5-min Rain = 0
KOD1 291909Z 16003KT 19/02 A3019 RMK A01 T01850022  RH  034%=      5-min Rain = 0
KOD1 291910Z 13003KT 19/03 A3019 RMK A01 T01860032  RH  036%=      5-min Rain = 0
KOD1 291911Z 09004KT 19/03 A3019 RMK A01 T01880031  RH  035%=      5-min Rain = 0
KOD1 291912Z 09005KT 19/03 A3019 RMK A01 T01880028  RH  035%=      5-min Rain = 0
KOD1 291913Z 09008KT 19/03 A3019 RMK A01 T01870029  RH  035%=      5-min Rain = 0
KOD1 291914Z 10007KT 19/03 A3019 RMK A01 T01860026  RH  034%=      5-min Rain = 0
KOD1 291915Z 07006KT 18/02 A3019 RMK A01 T01830023  RH  034%=      5-min Rain = 0
KOD1 291916Z 08006KT 18/02 A3019 RMK A01 T01830023  RH  034%=      5-min Rain = 0
KOD1 291917Z 08005KT 18/02 A3018 RMK A01 T01810024  RH  035%=      5-min Rain = 0
KOD1 291918Z 07007KT 18/03 A3018 RMK A01 T01830026  RH  035%=      5-min Rain = 0
KOD1 291919Z 07005KT 18/02 A3018 RMK A01 T01840024  RH  034%=      5-min Rain = 0
KOD1 291920Z 13006G11KT 18/03 A3018 RMK A01 T01830026  RH  035%=      5-min Rain = 0
KOD1 291921Z 16007KT 19/03 A3018 RMK A01 T01850030  RH  036%=      5-min Rain = 0
KOD1 291922Z 16007KT 19/03 A3018 RMK A01 T01860030  RH  035%=      5-min Rain = 0
KOD1 291923Z 13007KT 19/03 A3018 RMK A01 T01870033  RH  036%=      5-min Rain = 0
KOD1 291924Z 08002KT 19/03 A3018 RMK A01 T01860032  RH  036%=      5-min Rain = 0
KOD1 291925Z 13003KT 19/04 A3018 RMK A01 T01870038  RH  037%=      5-min Rain = 0
KOD1 291926Z 10004KT 19/04 A3018 RMK A01 T01890038  RH  037%=      5-min Rain = 0
KOD1 291927Z 11008KT 19/04 A3018 RMK A01 T01920039  RH  036%=      5-min Rain = 0
KOD1 291928Z 11006KT 19/03 A3018 RMK A01 T01900031  RH  035%=      5-min Rain = 0
KOD1 291929Z 09006KT 19/03 A3017 RMK A01 T01870030  RH  035%=      5-min Rain = 0
KOD1 291930Z 09006KT 19/03 A3017 RMK A01 T01860033  RH  036%=      5-min Rain = 0
KOD1 291931Z 10004KT 19/03 A3017 RMK A01 T01870034  RH  036%=      5-min Rain = 0
KOD1 291932Z 09004KT 19/03 A3017 RMK A01 T01860032  RH  036%=      5-min Rain = 0
KOD1 291933Z 10002KT 19/03 A3017 RMK A01 T01870033  RH  036%=      5-min Rain = 0
KOD1 291934Z 11002KT 19/03 A3017 RMK A01 T01880034  RH  036%=      5-min Rain = 0
KOD1 291935Z 13003KT 19/04 A3017 RMK A01 T01900037  RH  036%=      5-min Rain = 0
KOD1 291936Z 13003KT 19/03 A3017 RMK A01 T01910030  RH  034%=      5-min Rain = 0
KOD1 291937Z 10004KT 19/03 A3017 RMK A01 T01920028  RH  034%=      5-min Rain = 0
KOD1 291938Z 13001KT 19/04 A3017 RMK A01 T01920037  RH  036%=      5-min Rain = 0
KOD1 291939Z 18003KT 20/03 A3017 RMK A01 T01950032  RH  034%=      5-min Rain = 0
KOD1 291940Z 14001KT 19/03 A3017 RMK A01 T01940032  RH  034%=      5-min Rain = 0
KOD1 291941Z 09003KT 20/03 A3017 RMK A01 T01970031  RH  033%=      5-min Rain = 0
KOD1 291942Z 09005KT 20/04 A3017 RMK A01 T01990040  RH  035%=      5-min Rain = 0
KOD1 291943Z 10002KT 20/04 A3017 RMK A01 T01960035  RH  035%=      5-min Rain = 0
KOD1 291944Z 07004KT 19/04 A3017 RMK A01 T01940035  RH  035%=      5-min Rain = 0
KOD1 291945Z 05004KT 19/03 A3016 RMK A01 T01920034  RH  035%=      5-min Rain = 0
KOD1 291946Z 07005KT 19/03 A3016 RMK A01 T01900031  RH  035%=      5-min Rain = 0
KOD1 291947Z 07006KT 19/04 A3016 RMK A01 T01920038  RH  036%=      5-min Rain = 0
KOD1 291948Z 09005KT 19/03 A3016 RMK A01 T01910029  RH  034%=      5-min Rain = 0
KOD1 291949Z 10007KT 19/03 A3016 RMK A01 T01890034  RH  036%=      5-min Rain = 0
KOD1 291950Z 10007KT 19/03 A3016 RMK A01 T01890032  RH  035%=      5-min Rain = 0
KOD1 291951Z 09007KT 19/03 A3016 RMK A01 T01880032  RH  035%=      5-min Rain = 0
KOD1 291952Z 11008KT 19/03 A3016 RMK A01 T01900033  RH  035%=      5-min Rain = 0
KOD1 291953Z 10005KT 19/03 A3016 RMK A01 T01900029  RH  034%=      5-min Rain = 0
KOD1 291954Z 11005KT 19/03 A3016 RMK A01 T01890031  RH  035%=      5-min Rain = 0
KOD1 291955Z 12004KT 19/03 A3016 RMK A01 T01880029  RH  035%=      5-min Rain = 0
KOD1 291956Z 11004KT 19/03 A3016 RMK A01 T01890031  RH  035%=      5-min Rain = 0
KOD1 291957Z 13004KT 19/03 A3016 RMK A01 T01880029  RH  035%=      5-min Rain = 0
KOD1 291958Z 12005KT 19/03 A3016 RMK A01 T01900033  RH  035%=      5-min Rain = 0
KOD1 291959Z 11005KT 19/03 A3016 RMK A01 T01910031  RH  034%=      5-min Rain = 0
KOD1 292000Z 10007KT 19/03 A3016 RMK A01 T01910032  RH  035%=      5-min Rain = 0
KOD1 292001Z 09005KT 19/03 A3016 RMK A01 T01900032  RH  035%=      5-min Rain = 0
KOD1 292002Z 10004KT 19/03 A3016 RMK A01 T01900034  RH  036%=      5-min Rain = 0
KOD1 292003Z 07002KT 19/04 A3015 RMK A01 T01920042  RH  037%=      5-min Rain = 0
KOD1 292004Z 01003KT 19/03 A3015 RMK A01 T01910031  RH  035%=      5-min Rain = 0
KOD1 292005Z 01004KT 19/03 A3015 RMK A01 T01890034  RH  036%=      5-min Rain = 0
KOD1 292006Z 02004KT 19/04 A3015 RMK A01 T01910036  RH  036%=      5-min Rain = 0
KOD1 292007Z 07006KT 19/03 A3015 RMK A01 T01900031  RH  035%=      5-min Rain = 0
KOD1 292008Z 13007KT 19/03 A3015 RMK A01 T01910033  RH  035%=      5-min Rain = 0
KOD1 292009Z 15005KT 19/03 A3015 RMK A01 T01910029  RH  034%=      5-min Rain = 0
KOD1 292010Z 13004KT 19/03 A3015 RMK A01 T01900028  RH  034%=      5-min Rain = 0
KOD1 292011Z 06004KT 19/03 A3015 RMK A01 T01910033  RH  035%=      5-min Rain = 0
KOD1 292012Z 09005KT 19/04 A3015 RMK A01 T01940035  RH  035%=      5-min Rain = 0
KOD1 292013Z 08008KT 20/03 A3015 RMK A01 T01950032  RH  034%=      5-min Rain = 0
KOD1 292014Z 06007KT 20/03 A3015 RMK A01 T01950030  RH  033%=      5-min Rain = 0
KOD1 292015Z 05006KT 19/03 A3015 RMK A01 T01940031  RH  034%=      5-min Rain = 0
KOD1 292016Z 06007KT 20/04 A3015 RMK A01 T01960037  RH  035%=      5-min Rain = 0
KOD1 292017Z 09006KT 20/03 A3015 RMK A01 T01970032  RH  033%=      5-min Rain = 0
KOD1 292018Z 11008KT 20/03 A3015 RMK A01 T01950030  RH  033%=      5-min Rain = 0
KOD1 292019Z 11006KT 20/03 A3015 RMK A01 T01950031  RH  034%=      5-min Rain = 0
KOD1 292020Z 14003KT 19/03 A3014 RMK A01 T01920026  RH  033%=      5-min Rain = 0
KOD1 292021Z 18002KT 19/03 A3014 RMK A01 T01910027  RH  033%=      5-min Rain = 0
KOD1 292022Z 19001KT 19/04 A3014 RMK A01 T01940036  RH  035%=      5-min Rain = 0
KOD1 292023Z 11005KT 20/04 A3014 RMK A01 T01970039  RH  035%=      5-min Rain = 0
KOD1 292024Z 11005KT 20/03 A3014 RMK A01 T01970028  RH  033%=      5-min Rain = 0
KOD1 292025Z 12003KT 19/02 A3014 RMK A01 T01940022  RH  032%=      5-min Rain = 0
KOD1 292026Z 10004G9KT 19/03 A3014 RMK A01 T01930032  RH  034%=      5-min Rain = 0
KOD1 292027Z 06006G11KT 20/04 A3014 RMK A01 T01980035  RH  034%=      5-min Rain = 0
KOD1 292028Z 09005KT 20/03 A3014 RMK A01 T01980029  RH  032%=      5-min Rain = 0
KOD1 292029Z 09005KT 20/03 A3014 RMK A01 T01950028  RH  033%=      5-min Rain = 0
KOD1 292030Z 10008KT 19/04 A3014 RMK A01 T01940035  RH  035%=      5-min Rain = 0
KOD1 292031Z 10006KT 20/03 A3014 RMK A01 T01960032  RH  034%=      5-min Rain = 0
KOD1 292032Z 09006KT 19/03 A3013 RMK A01 T01940031  RH  034%=      5-min Rain = 0
KOD1 292033Z 08006KT 20/03 A3013 RMK A01 T01950033  RH  034%=      5-min Rain = 0
KOD1 292034Z 06009KT 20/03 A3013 RMK A01 T01960031  RH  033%=      5-min Rain = 0
KOD1 292035Z 10008KT 20/04 A3013 RMK A01 T01980036  RH  034%=      5-min Rain = 0
KOD1 292036Z 10008KT 20/04 A3013 RMK A01 T02010037  RH  034%=      5-min Rain = 0
KOD1 292037Z 11007KT 20/04 A3013 RMK A01 T02040038  RH  033%=      5-min Rain = 0
KOD1 292038Z 12009KT 21/03 A3013 RMK A01 T02050033  RH  032%=      5-min Rain = 0
KOD1 292039Z 14004KT 20/03 A3013 RMK A01 T02000028  RH  032%=      5-min Rain = 0
KOD1 292040Z 15005KT 20/03 A3013 RMK A01 T01990032  RH  033%=      5-min Rain = 0
KOD1 292041Z 11007KT 20/03 A3013 RMK A01 T01980033  RH  034%=      5-min Rain = 0
KOD1 292042Z 11008KT 20/03 A3013 RMK A01 T01980030  RH  033%=      5-min Rain = 0
KOD1 292043Z 12007KT 20/03 A3013 RMK A01 T01980030  RH  033%=      5-min Rain = 0
KOD1 292044Z 09006KT 20/03 A3013 RMK A01 T01980030  RH  033%=      5-min Rain = 0
KOD1 292045Z 10004KT 20/03 A3013 RMK A01 T01960025  RH  032%=      5-min Rain = 0
KOD1 292046Z 11003KT 19/03 A3013 RMK A01 T01940027  RH  033%=      5-min Rain = 0
KOD1 292047Z 11007KT 20/03 A3013 RMK A01 T01950032  RH  034%=      5-min Rain = 0
KOD1 292048Z 10008KT 20/03 A3013 RMK A01 T01980031  RH  033%=      5-min Rain = 0
KOD1 292049Z 10007KT 20/03 A3013 RMK A01 T01980029  RH  032%=      5-min Rain = 0
KOD1 292050Z 11006KT 20/03 A3013 RMK A01 T01970029  RH  033%=      5-min Rain = 0
KOD1 292051Z 10007KT 20/03 A3013 RMK A01 T01980031  RH  033%=      5-min Rain = 0
KOD1 292052Z 10006KT 20/03 A3013 RMK A01 T01980028  RH  032%=      5-min Rain = 0
KOD1 292053Z 12005KT 20/03 A3013 RMK A01 T01980031  RH  033%=      5-min Rain = 0
KOD1 292054Z 12006KT 20/03 A3013 RMK A01 T01960029  RH  033%=      5-min Rain = 0
KOD1 292055Z 11007KT 20/03 A3013 RMK A01 T01970030  RH  033%=      5-min Rain = 0
KOD1 292056Z 11005KT 20/03 A3013 RMK A01 T01980028  RH  032%=      5-min Rain = 0
KOD1 292057Z 12004KT 20/03 A3013 RMK A01 T01970033  RH  034%=      5-min Rain = 0
KOD1 292058Z 12006KT 20/04 A3013 RMK A01 T01990036  RH  034%=      5-min Rain = 0
KOD1 292059Z 10006KT 20/04 A3013 RMK A01 T02010036  RH  034%=      5-min Rain = 0
KOD1 292100Z 12004KT 20/04 A3013 RMK A01 T02010035  RH  033%=      5-min Rain = 0
KOD1 292101Z 13007KT 20/04 A3013 RMK A01 T02030037  RH  033%=      5-min Rain = 0
KOD1 292102Z 13009KT 20/03 A3013 RMK A01 T02030030  RH  032%=      5-min Rain = 0
KOD1 292103Z 11007KT 20/03 A3013 RMK A01 T02020030  RH  032%=      5-min Rain = 0
KOD1 292104Z 12008KT 20/03 A3013 RMK A01 T02030032  RH  032%=      5-min Rain = 0
KOD1 292105Z 14011KT 21/03 A3013 RMK A01 T02050033  RH  032%=      5-min Rain = 0
KOD1 292106Z 13010KT 20/03 A3013 RMK A01 T02040029  RH  032%=      5-min Rain = 0
KOD1 292107Z 12007KT 20/03 A3013 RMK A01 T02010028  RH  032%=      5-min Rain = 0
KOD1 292108Z 12007KT 20/03 A3013 RMK A01 T01980030  RH  033%=      5-min Rain = 0
KOD1 292109Z 11008KT 20/03 A3013 RMK A01 T02010033  RH  033%=      5-min Rain = 0
KOD1 292110Z 10006KT 20/03 A3013 RMK A01 T02010033  RH  033%=      5-min Rain = 0
KOD1 292111Z 11005KT 20/03 A3012 RMK A01 T01990032  RH  033%=      5-min Rain = 0
KOD1 292112Z 14011G16KT 20/04 A3012 RMK A01 T02000035  RH  034%=      5-min Rain = 0
KOD1 292113Z 14010KT 20/03 A3012 RMK A01 T02040030  RH  032%=      5-min Rain = 0
KOD1 292114Z 15009KT 20/03 A3012 RMK A01 T02040029  RH  031%=      5-min Rain = 0
KOD1 292115Z 14007KT 20/03 A3012 RMK A01 T02030025  RH  031%=      5-min Rain = 0
KOD1 292116Z 13007KT 20/03 A3012 RMK A01 T02010026  RH  031%=      5-min Rain = 0
KOD1 292117Z 14005KT 20/03 A3012 RMK A01 T02010032  RH  033%=      5-min Rain = 0
KOD1 292118Z 13006KT 20/04 A3012 RMK A01 T02030036  RH  033%=      5-min Rain = 0
KOD1 292119Z 14009KT 21/04 A3012 RMK A01 T02050036  RH  033%=      5-min Rain = 0
KOD1 292120Z 12011KT 21/04 A3012 RMK A01 T02070036  RH  032%=      5-min Rain = 0
KOD1 292121Z 11012KT 21/03 A3012 RMK A01 T02070033  RH  032%=      5-min Rain = 0
KOD1 292122Z 13011KT 21/03 A3012 RMK A01 T02050031  RH  032%=      5-min Rain = 0
KOD1 292123Z 14009KT 20/03 A3012 RMK A01 T02040029  RH  031%=      5-min Rain = 0
KOD1 292124Z 12008KT 20/03 A3012 RMK A01 T02040033  RH  032%=      5-min Rain = 0
KOD1 292125Z 13010KT 21/03 A3012 RMK A01 T02060033  RH  032%=      5-min Rain = 0
KOD1 292126Z 15010KT 21/04 A3012 RMK A01 T02070036  RH  032%=      5-min Rain = 0
KOD1 292127Z 14010KT 21/03 A3012 RMK A01 T02060034  RH  032%=      5-min Rain = 0
KOD1 292128Z 15011KT 21/04 A3012 RMK A01 T02050038  RH  033%=      5-min Rain = 0
KOD1 292129Z 16010KT 20/04 A3012 RMK A01 T02040038  RH  033%=      5-min Rain = 0
KOD1 292130Z 16008KT 20/04 A3012 RMK A01 T02020037  RH  033%=      5-min Rain = 0
KOD1 292131Z 17011KT 20/04 A3012 RMK A01 T02030041  RH  034%=      5-min Rain = 0
KOD1 292132Z 18010KT 20/04 A3012 RMK A01 T02040035  RH  033%=      5-min Rain = 0
KOD1 292133Z 18006KT 20/04 A3012 RMK A01 T02020039  RH  034%=      5-min Rain = 0
KOD1 292134Z 16010KT 20/04 A3012 RMK A01 T02020040  RH  034%=      5-min Rain = 0
KOD1 292135Z 14009KT 20/04 A3012 RMK A01 T02030042  RH  035%=      5-min Rain = 0
KOD1 292136Z 15012KT 21/04 A3012 RMK A01 T02050041  RH  034%=      5-min Rain = 0
KOD1 292137Z 16012KT 20/04 A3012 RMK A01 T02040043  RH  035%=      5-min Rain = 0
KOD1 292138Z 16009KT 20/04 A3012 RMK A01 T02020041  RH  035%=      5-min Rain = 0
KOD1 292139Z 15008KT 20/04 A3012 RMK A01 T01990041  RH  035%=      5-min Rain = 0
KOD1 292140Z 17009KT 20/05 A3011 RMK A01 T02010047  RH  036%=      5-min Rain = 0
KOD1 292141Z 17011KT 20/05 A3011 RMK A01 T02030046  RH  036%=      5-min Rain = 0
KOD1 292142Z 15011KT 21/05 A3011 RMK A01 T02060050  RH  036%=      5-min Rain = 0
KOD1 292143Z 15011KT 21/05 A3011 RMK A01 T02060045  RH  035%=      5-min Rain = 0
KOD1 292144Z 16010KT 20/04 A3011 RMK A01 T02030043  RH  035%=      5-min Rain = 0
KOD1 292145Z 15011KT 20/04 A3011 RMK A01 T02030042  RH  035%=      5-min Rain = 0
KOD1 292146Z 15010KT 20/04 A3011 RMK A01 T02010043  RH  035%=      5-min Rain = 0
KOD1 292147Z 13010KT 20/05 A3011 RMK A01 T02020046  RH  036%=      5-min Rain = 0
KOD1 292148Z 14012KT 20/05 A3011 RMK A01 T02020046  RH  036%=      5-min Rain = 0
KOD1 292149Z 14010KT 20/04 A3011 RMK A01 T01990042  RH  036%=      5-min Rain = 0
KOD1 292150Z 13009KT 20/05 A3011 RMK A01 T01960045  RH  037%=      5-min Rain = 0
KOD1 292151Z 16009KT 20/05 A3011 RMK A01 T01960048  RH  038%=      5-min Rain = 0
KOD1 292152Z 17011KT 20/05 A3011 RMK A01 T01980048  RH  037%=      5-min Rain = 0
KOD1 292153Z 15008KT 20/05 A3011 RMK A01 T01970046  RH  037%=      5-min Rain = 0
KOD1 292154Z 16010KT 20/05 A3011 RMK A01 T01980047  RH  037%=      5-min Rain = 0
KOD1 292155Z 16012KT 20/05 A3011 RMK A01 T02000049  RH  037%=      5-min Rain = 0
KOD1 292156Z 14011KT 20/05 A3011 RMK A01 T02010048  RH  037%=      5-min Rain = 0
KOD1 292157Z 13010KT 20/05 A3011 RMK A01 T02000046  RH  036%=      5-min Rain = 0
KOD1 292158Z 13010KT 20/05 A3011 RMK A01 T01980045  RH  036%=      5-min Rain = 0
KOD1 292159Z 14009KT 20/05 A3011 RMK A01 T02000048  RH  037%=      5-min Rain = 0
KOD1 292200Z 16010KT 20/05 A3011 RMK A01 T02020049  RH  036%=      5-min Rain = 0
KOD1 292201Z 16010KT 20/05 A3011 RMK A01 T02010045  RH  036%=      5-min Rain = 0
KOD1 292202Z 14013KT 20/05 A3011 RMK A01 T01990047  RH  037%=      5-min Rain = 0
KOD1 292203Z 13010KT 20/05 A3011 RMK A01 T01960046  RH  037%=      5-min Rain = 0
KOD1 292204Z 14011KT 20/05 A3011 RMK A01 T01950049  RH  038%=      5-min Rain = 0
KOD1 292205Z 13014KT 20/05 A3011 RMK A01 T01950048  RH  038%=      5-min Rain = 0
KOD1 292206Z 13010KT 20/05 A3011 RMK A01 T01950050  RH  039%=      5-min Rain = 0
KOD1 292207Z 12009KT 20/05 A3011 RMK A01 T01970050  RH  038%=      5-min Rain = 0
KOD1 292208Z 13008KT 20/05 A3011 RMK A01 T01970048  RH  038%=      5-min Rain = 0
KOD1 292209Z 14010KT 20/05 A3011 RMK A01 T01990050  RH  038%=      5-min Rain = 0
KOD1 292210Z 15012KT 20/05 A3011 RMK A01 T01980047  RH  037%=      5-min Rain = 0
KOD1 292211Z 16012KT 20/05 A3011 RMK A01 T01970047  RH  037%=      5-min Rain = 0
KOD1 292212Z 15010KT 20/05 A3011 RMK A01 T01960048  RH  038%=      5-min Rain = 0
KOD1 292213Z 15009KT 20/05 A3011 RMK A01 T01960050  RH  038%=      5-min Rain = 0
KOD1 292214Z 15009KT 20/05 A3011 RMK A01 T01950052  RH  039%=      5-min Rain = 0
KOD1 292215Z 16008KT 20/05 A3011 RMK A01 T01950053  RH  039%=      5-min Rain = 0
KOD1 292216Z 16010KT 20/06 A3011 RMK A01 T01950055  RH  040%=      5-min Rain = 0
KOD1 292217Z 14011KT 20/06 A3011 RMK A01 T01950056  RH  040%=      5-min Rain = 0
KOD1 292218Z 14008KT 20/05 A3011 RMK A01 T01960051  RH  038%=      5-min Rain = 0
KOD1 292219Z 15013KT 20/05 A3011 RMK A01 T01960050  RH  038%=      5-min Rain = 0
KOD1 292220Z 13012KT 20/05 A3011 RMK A01 T01950050  RH  039%=      5-min Rain = 0
KOD1 292221Z 14011KT 20/05 A3011 RMK A01 T01950052  RH  039%=      5-min Rain = 0
KOD1 292222Z 14011KT 20/05 A3011 RMK A01 T01950052  RH  039%=      5-min Rain = 0
KOD1 292223Z 15011KT 20/05 A3011 RMK A01 T01950054  RH  039%=      5-min Rain = 0
KOD1 292224Z 15009KT 19/05 A3011 RMK A01 T01940054  RH  040%=      5-min Rain = 0
KOD1 292225Z 16011KT 19/05 A3011 RMK A01 T01930054  RH  040%=      5-min Rain = 0
KOD1 292226Z 14011KT 19/06 A3011 RMK A01 T01940055  RH  040%=      5-min Rain = 0
KOD1 292227Z 12010KT 19/05 A3011 RMK A01 T01940052  RH  039%=      5-min Rain = 0
KOD1 292228Z 12008KT 19/05 A3011 RMK A01 T01940052  RH  039%=      5-min Rain = 0
KOD1 292229Z 14011KT 19/05 A3011 RMK A01 T01940053  RH  040%=      5-min Rain = 0
KOD1 292230Z 13010KT 20/05 A3011 RMK A01 T01950054  RH  040%=      5-min Rain = 0
KOD1 292231Z 12013KT 20/06 A3011 RMK A01 T01970055  RH  039%=      5-min Rain = 0
KOD1 292232Z 14012KT 20/06 A3011 RMK A01 T01970055  RH  039%=      5-min Rain = 0
KOD1 292233Z 14012KT 20/05 A3011 RMK A01 T01950053  RH  039%=      5-min Rain = 0
KOD1 292234Z 15012KT 19/05 A3011 RMK A01 T01940053  RH  040%=      5-min Rain = 0
KOD1 292235Z 13010KT 19/06 A3011 RMK A01 T01930055  RH  040%=      5-min Rain = 0
KOD1 292236Z 14009KT 19/06 A3011 RMK A01 T01940055  RH  040%=      5-min Rain = 0
KOD1 292237Z 14010KT 20/06 A3011 RMK A01 T01950057  RH  041%=      5-min Rain = 0
KOD1 292238Z 12012KT 20/06 A3011 RMK A01 T01950056  RH  040%=      5-min Rain = 0
KOD1 292239Z 12010KT 19/06 A3011 RMK A01 T01940055  RH  040%=      5-min Rain = 0
KOD1 292240Z 13010KT 20/06 A3011 RMK A01 T01950055  RH  040%=      5-min Rain = 0
KOD1 292241Z 13011KT 19/05 A3011 RMK A01 T01940054  RH  040%=      5-min Rain = 0
KOD1 292242Z 13009KT 19/06 A3011 RMK A01 T01930055  RH  040%=      5-min Rain = 0
KOD1 292243Z 14012KT 19/05 A3011 RMK A01 T01930053  RH  040%=      5-min Rain = 0
KOD1 292244Z 13010KT 19/06 A3011 RMK A01 T01920055  RH  040%=      5-min Rain = 0
KOD1 292245Z 14010KT 19/06 A3011 RMK A01 T01920055  RH  040%=      5-min Rain = 0
KOD1 292246Z 14010KT 19/06 A3011 RMK A01 T01920055  RH  041%=      5-min Rain = 0
KOD1 292247Z 15011KT 19/06 A3011 RMK A01 T01920055  RH  041%=      5-min Rain = 0
KOD1 292248Z 15010KT 19/06 A3011 RMK A01 T01910056  RH  041%=      5-min Rain = 0
KOD1 292249Z 13008KT 19/06 A3011 RMK A01 T01920057  RH  041%=      5-min Rain = 0
KOD1 292250Z 11011KT 19/06 A3011 RMK A01 T01930058  RH  041%=      5-min Rain = 0
KOD1 292251Z 12012KT 19/05 A3011 RMK A01 T01910054  RH  041%=      5-min Rain = 0
KOD1 292252Z 11012KT 19/06 A301 RMK A01 T01900055  RH  041%=      5-min Rain = 0
KOD1 292253Z 13010KT 19/06 A301 RMK A01 T01900057  RH  041%=      5-min Rain = 0
KOD1 292254Z 12009KT 19/06 A301 RMK A01 T01910057  RH  042%=      5-min Rain = 0
KOD1 292255Z 12009KT 19/06 A301 RMK A01 T01920058  RH  041%=      5-min Rain = 0
KOD1 292256Z 13008KT 19/06 A301 RMK A01 T01920057  RH  041%=      5-min Rain = 0
KOD1 292257Z 14008KT 19/06 A301 RMK A01 T01920059  RH  042%=      5-min Rain = 0
KOD1 292258Z 12009KT 19/06 A301 RMK A01 T01920058  RH  041%=      5-min Rain = 0
KOD1 292259Z 13010KT 19/06 A301 RMK A01 T01920057  RH  041%=      5-min Rain = 0
KOD1 292300Z 12010KT 19/06 A301 RMK A01 T01910057  RH  041%=      5-min Rain = 0
KOD1 292301Z 12010KT 19/06 A301 RMK A01 T01910057  RH  042%=      5-min Rain = 0
KOD1 292302Z 13012KT 19/06 A301 RMK A01 T01900057  RH  042%=      5-min Rain = 0
KOD1 292303Z 12010KT 19/06 A301 RMK A01 T01900058  RH  042%=      5-min Rain = 0
KOD1 292304Z 13009KT 19/06 A301 RMK A01 T01900059  RH  042%=      5-min Rain = 0
KOD1 292305Z 14011KT 19/06 A301 RMK A01 T01910058  RH  042%=      5-min Rain = 0
KOD1 292306Z 13010KT 19/06 A301 RMK A01 T01910057  RH  041%=      5-min Rain = 0
KOD1 292307Z 13010KT 19/06 A301 RMK A01 T01910059  RH  042%=      5-min Rain = 0
KOD1 292308Z 14009KT 19/06 A301 RMK A01 T01910058  RH  042%=      5-min Rain = 0
KOD1 292309Z 14009KT 19/06 A301 RMK A01 T01910059  RH  042%=      5-min Rain = 0
KOD1 292310Z 12007KT 19/06 A301 RMK A01 T01910061  RH  042%=      5-min Rain = 0
KOD1 292311Z 12010KT 19/06 A301 RMK A01 T01920061  RH  042%=      5-min Rain = 0
KOD1 292312Z 11011KT 19/06 A301 RMK A01 T01910058  RH  042%=      5-min Rain = 0
KOD1 292313Z 12010KT 19/06 A301 RMK A01 T01900058  RH  042%=      5-min Rain = 0
KOD1 292314Z 12010KT 19/06 A301 RMK A01 T01900058  RH  042%=      5-min Rain = 0
KOD1 292315Z 12011KT 19/06 A301 RMK A01 T01910060  RH  042%=      5-min Rain = 0
KOD1 292316Z 12011KT 19/06 A301 RMK A01 T01920059  RH  042%=      5-min Rain = 0
KOD1 292317Z 13010KT 19/06 A301 RMK A01 T01920059  RH  042%=      5-min Rain = 0
KOD1 292318Z 13010KT 19/06 A301 RMK A01 T01920060  RH  042%=      5-min Rain = 0
KOD1 292319Z 13011KT 19/06 A301 RMK A01 T01930060  RH  042%=      5-min Rain = 0
KOD1 292320Z 12009KT 19/06 A301 RMK A01 T01930061  RH  042%=      5-min Rain = 0
KOD1 292321Z 12008KT 19/06 A301 RMK A01 T01940063  RH  042%=      5-min Rain = 0
KOD1 292322Z 12009KT 20/06 A301 RMK A01 T01970064  RH  042%=      5-min Rain = 0
KOD1 292323Z 11012KT 20/06 A301 RMK A01 T01960060  RH  041%=      5-min Rain = 0
KOD1 292324Z 12010KT 19/06 A301 RMK A01 T01930060  RH  042%=      5-min Rain = 0
KOD1 292325Z 11010KT 19/06 A301 RMK A01 T01920059  RH  042%=      5-min Rain = 0
KOD1 292326Z 12011KT 19/06 A301 RMK A01 T01910059  RH  042%=      5-min Rain = 0
KOD1 292327Z 12011KT 19/06 A301 RMK A01 T01890059  RH  042%=      5-min Rain = 0
KOD1 292328Z 12011KT 19/06 A301 RMK A01 T01890059  RH  043%=      5-min Rain = 0
KOD1 292329Z 12011KT 19/06 A301 RMK A01 T01890060  RH  043%=      5-min Rain = 0
KOD1 292330Z 12009KT 19/06 A301 RMK A01 T01890061  RH  043%=      5-min Rain = 0
KOD1 292331Z 13009KT 19/06 A301 RMK A01 T01890062  RH  043%=      5-min Rain = 0
KOD1 292332Z 13009KT 19/06 A301 RMK A01 T01900060  RH  043%=      5-min Rain = 0
KOD1 292333Z 13007KT 19/06 A301 RMK A01 T01900061  RH  043%=      5-min Rain = 0
KOD1 292334Z 13009KT 19/06 A3009 RMK A01 T01910061  RH  043%=      5-min Rain = 0
KOD1 292335Z 13010KT 19/06 A3009 RMK A01 T01910060  RH  042%=      5-min Rain = 0
KOD1 292336Z 13010KT 19/06 A3009 RMK A01 T01900060  RH  042%=      5-min Rain = 0
KOD1 292337Z 12007KT 19/06 A3009 RMK A01 T01900061  RH  043%=      5-min Rain = 0
KOD1 292338Z 12010KT 19/06 A3009 RMK A01 T01900061  RH  043%=      5-min Rain = 0
KOD1 292339Z 12008KT 19/06 A3009 RMK A01 T01900061  RH  043%=      5-min Rain = 0
KOD1 292340Z 12008KT 19/06 A3009 RMK A01 T01900063  RH  044%=      5-min Rain = 0
KOD1 292341Z 11008KT 19/06 A3009 RMK A01 T01890064  RH  044%=      5-min Rain = 0
KOD1 292342Z 11008KT 19/06 A301 RMK A01 T01880064  RH  044%=      5-min Rain = 0
KOD1 292343Z 11008KT 19/06 A301 RMK A01 T01870063  RH  044%=      5-min Rain = 0
KOD1 292344Z 11007KT 19/06 A301 RMK A01 T01870064  RH  045%=      5-min Rain = 0
KOD1 292345Z 12008KT 19/07 A301 RMK A01 T01870065  RH  045%=      5-min Rain = 0
KOD1 292346Z 11007KT 19/06 A3009 RMK A01 T01870063  RH  044%=      5-min Rain = 0
KOD1 292347Z 12008KT 19/07 A3009 RMK A01 T01870065  RH  045%=      5-min Rain = 0
KOD1 292348Z 12009KT 19/06 A3009 RMK A01 T01860064  RH  045%=      5-min Rain = 0
KOD1 292349Z 12007KT 19/07 A3009 RMK A01 T01860065  RH  045%=      5-min Rain = 0
KOD1 292350Z 11008KT 19/07 A3009 RMK A01 T01860065  RH  045%=      5-min Rain = 0
KOD1 292351Z 11008KT 19/07 A3009 RMK A01 T01860066  RH  045%=      5-min Rain = 0
KOD1 292352Z 12009KT 19/07 A3009 RMK A01 T01850067  RH  046%=      5-min Rain = 0
KOD1 292353Z 11008KT 19/07 A3009 RMK A01 T01850066  RH  046%=      5-min Rain = 0
KOD1 292354Z 12009KT 19/07 A3009 RMK A01 T01850067  RH  046%=      5-min Rain = 0
KOD1 292355Z 11008KT 19/07 A3009 RMK A01 T01850068  RH  046%=      5-min Rain = 0
KOD1 292356Z 11008KT 19/07 A3009 RMK A01 T01850068  RH  047%=      5-min Rain = 0
KOD1 292357Z 12008KT 19/07 A3009 RMK A01 T01850069  RH  047%=      5-min Rain = 0
KOD1 292358Z 12008KT 19/07 A3009 RMK A01 T01850071  RH  047%=      5-min Rain = 0
KOD1 292359Z 11008KT 19/07 A3009 RMK A01 T01850069  RH  047%=      5-min Rain = 0
KOD1 300000Z 12008KT 18/07 A3009 RMK A01 T01840070  RH  047%=      5-min Rain = 0
KOD1 300001Z 12007KT 18/07 A3009 RMK A01 T01840071  RH  048%=      5-min Rain = 0
KOD1 300002Z 13007KT 18/07 A3009 RMK A01 T01840071  RH  048%=      5-min Rain = 0
KOD1 300003Z 12008KT 18/07 A3009 RMK A01 T01840069  RH  047%=      5-min Rain = 0
KOD1 300004Z 12008KT 18/07 A3009 RMK A01 T01840069  RH  047%=      5-min Rain = 0
KOD1 300005Z 12007KT 18/07 A3009 RMK A01 T01840070  RH  047%=      5-min Rain = 0
KOD1 300006Z 12007KT 18/07 A3009 RMK A01 T01840069  RH  047%=      5-min Rain = 0
KOD1 300007Z 12008KT 18/07 A301 RMK A01 T01840070  RH  047%=      5-min Rain = 0
KOD1 300008Z 12009KT 18/07 A301 RMK A01 T01840069  RH  047%=      5-min Rain = 0
KOD1 300009Z 12008KT 18/07 A301 RMK A01 T01840070  RH  047%=      5-min Rain = 0
KOD1 300010Z 12007KT 18/07 A301 RMK A01 T01830070  RH  047%=      5-min Rain = 0
KOD1 300011Z 12007KT 18/07 A301 RMK A01 T01830071  RH  048%=      5-min Rain = 0
KOD1 300012Z 12007KT 18/07 A301 RMK A01 T01830071  RH  048%=      5-min Rain = 0
KOD1 300013Z 12006KT 18/07 A3009 RMK A01 T01820072  RH  048%=      5-min Rain = 0
KOD1 300014Z 12007KT 18/07 A3009 RMK A01 T01820072  RH  049%=      5-min Rain = 0
KOD1 300015Z 12007KT 18/07 A3009 RMK A01 T01810072  RH  049%=      5-min Rain = 0
KOD1 300016Z 12008KT 18/07 A3009 RMK A01 T01810071  RH  049%=      5-min Rain = 0
KOD1 300017Z 12007KT 18/07 A3009 RMK A01 T01810072  RH  049%=      5-min Rain = 0
KOD1 300018Z 12006KT 18/07 A3009 RMK A01 T01810072  RH  049%=      5-min Rain = 0
KOD1 300019Z 12007KT 18/07 A3009 RMK A01 T01810071  RH  049%=      5-min Rain = 0
KOD1 300020Z 12007KT 18/07 A3009 RMK A01 T01810071  RH  049%=      5-min Rain = 0
KOD1 300021Z 12007KT 18/07 A3009 RMK A01 T01810070  RH  048%=      5-min Rain = 0
KOD1 300022Z 12007KT 18/07 A3009 RMK A01 T01810069  RH  048%=      5-min Rain = 0
KOD1 300023Z 12007KT 18/07 A3009 RMK A01 T01810070  RH  048%=      5-min Rain = 0
KOD1 300024Z 13007KT 18/07 A301 RMK A01 T01810070  RH  048%=      5-min Rain = 0
KOD1 300025Z 12006KT 18/07 A301 RMK A01 T01810069  RH  048%=      5-min Rain = 0
KOD1 300026Z 12006KT 18/07 A301 RMK A01 T01810070  RH  048%=      5-min Rain = 0
KOD1 300027Z 12006KT 18/07 A3009 RMK A01 T01800071  RH  049%=      5-min Rain = 0
KOD1 300028Z 12006KT 18/07 A3009 RMK A01 T01800071  RH  049%=      5-min Rain = 0
KOD1 300029Z 13005KT 18/07 A3009 RMK A01 T01790071  RH  049%=      5-min Rain = 0
KOD1 300030Z 12006KT 18/07 A3009 RMK A01 T01790070  RH  049%=      5-min Rain = 0
KOD1 300031Z 12006KT 18/07 A3009 RMK A01 T01780070  RH  049%=      5-min Rain = 0
KOD1 300032Z 12006KT 18/07 A3009 RMK A01 T01780070  RH  049%=      5-min Rain = 0
KOD1 300033Z 12006KT 18/07 A3009 RMK A01 T01780069  RH  049%=      5-min Rain = 0
KOD1 300034Z 12006KT 18/07 A3009 RMK A01 T01780070  RH  049%=      5-min Rain = 0
KOD1 300035Z 13006KT 18/07 A3009 RMK A01 T01770070  RH  049%=      5-min Rain = 0
KOD1 300036Z 12006KT 18/07 A3009 RMK A01 T01770069  RH  049%=      5-min Rain = 0
KOD1 300037Z 13005KT 18/07 A3009 RMK A01 T01770069  RH  049%=      5-min Rain = 0
KOD1 300038Z 12005KT 18/07 A3009 RMK A01 T01770069  RH  049%=      5-min Rain = 0
KOD1 300039Z 12006KT 18/07 A3009 RMK A01 T01760069  RH  049%=      5-min Rain = 0
KOD1 300040Z 12005KT 18/07 A3009 RMK A01 T01750070  RH  050%=      5-min Rain = 0
KOD1 300041Z 12006KT 18/07 A3009 RMK A01 T01750069  RH  050%=      5-min Rain = 0
KOD1 300042Z 12006KT 17/07 A3009 RMK A01 T01740069  RH  050%=      5-min Rain = 0
KOD1 300043Z 12006KT 17/07 A3009 RMK A01 T01740068  RH  050%=      5-min Rain = 0
KOD1 300044Z 12005KT 17/07 A3009 RMK A01 T01740069  RH  050%=      5-min Rain = 0
KOD1 300045Z 12006KT 17/07 A3009 RMK A01 T01730070  RH  051%=      5-min Rain = 0
KOD1 300046Z 12007KT 17/07 A3009 RMK A01 T01730070  RH  051%=      5-min Rain = 0
KOD1 300047Z 12007KT 17/07 A3009 RMK A01 T01720070  RH  051%=      5-min Rain = 0
KOD1 300048Z 12007KT 17/07 A3009 RMK A01 T01720071  RH  051%=      5-min Rain = 0
KOD1 300049Z 12007KT 17/07 A3009 RMK A01 T01710071  RH  051%=      5-min Rain = 0
KOD1 300050Z 12007KT 17/07 A301 RMK A01 T01720071  RH  051%=      5-min Rain = 0
KOD1 300051Z 12006KT 17/07 A301 RMK A01 T01720071  RH  052%=      5-min Rain = 0
KOD1 300052Z 13006KT 17/07 A301 RMK A01 T01710071  RH  052%=      5-min Rain = 0
KOD1 300053Z 12006KT 17/07 A301 RMK A01 T01710072  RH  052%=      5-min Rain = 0
KOD1 300054Z 12006KT 17/07 A301 RMK A01 T01700072  RH  052%=      5-min Rain = 0
KOD1 300055Z 12006KT 17/07 A301 RMK A01 T01700072  RH  052%=      5-min Rain = 0
KOD1 300056Z 13006KT 17/07 A301 RMK A01 T01700072  RH  052%=      5-min Rain = 0
KOD1 300057Z 13005KT 17/07 A301 RMK A01 T01700072  RH  053%=      5-min Rain = 0
KOD1 300058Z 12006KT 17/07 A301 RMK A01 T01690072  RH  053%=      5-min Rain = 0
KOD1 300059Z 12005KT 17/07 A301 RMK A01 T01690072  RH  053%=      5-min Rain = 0
KOD1 300100Z 12005KT 17/07 A301 RMK A01 T01680072  RH  053%=      5-min Rain = 0
KOD1 300101Z 12006KT 17/07 A301 RMK A01 T01680072  RH  053%=      5-min Rain = 0
KOD1 300102Z 12006KT 17/07 A301 RMK A01 T01670072  RH  053%=      5-min Rain = 0
KOD1 300103Z 12006KT 17/07 A301 RMK A01 T01670072  RH  053%=      5-min Rain = 0
KOD1 300104Z 12006KT 17/07 A301 RMK A01 T01670072  RH  053%=      5-min Rain = 0
KOD1 300105Z 12005KT 17/07 A301 RMK A01 T01670072  RH  054%=      5-min Rain = 0
KOD1 300106Z 12006KT 17/07 A301 RMK A01 T01660073  RH  054%=      5-min Rain = 0
KOD1 300107Z 12006KT 17/07 A3009 RMK A01 T01650073  RH  055%=      5-min Rain = 0
KOD1 300108Z 12007KT 16/07 A3009 RMK A01 T01640073  RH  055%=      5-min Rain = 0
KOD1 300109Z 12006KT 16/07 A3009 RMK A01 T01640074  RH  055%=      5-min Rain = 0
KOD1 300110Z 12006KT 16/07 A3009 RMK A01 T01630073  RH  055%=      5-min Rain = 0
KOD1 300111Z 12007KT 16/07 A301 RMK A01 T01640073  RH  055%=      5-min Rain = 0
KOD1 300112Z 12006KT 16/07 A301 RMK A01 T01640073  RH  055%=      5-min Rain = 0
KOD1 300113Z 12006KT 16/07 A301 RMK A01 T01640072  RH  054%=      5-min Rain = 0
KOD1 300114Z 12006KT 17/07 A301 RMK A01 T01650072  RH  054%=      5-min Rain = 0
KOD1 300115Z 12006KT 17/07 A301 RMK A01 T01650072  RH  054%=      5-min Rain = 0
KOD1 300116Z 12006KT 17/07 A301 RMK A01 T01650072  RH  054%=      5-min Rain = 0
KOD1 300117Z 12006KT 17/07 A301 RMK A01 T01650072  RH  054%=      5-min Rain = 0
KOD1 300118Z 13005KT 17/07 A301 RMK A01 T01650072  RH  054%=      5-min Rain = 0
KOD1 300119Z 12006KT 17/07 A301 RMK A01 T01650072  RH  054%=      5-min Rain = 0
KOD1 300120Z 12006KT 16/07 A301 RMK A01 T01640072  RH  054%=      5-min Rain = 0
KOD1 300121Z 12007KT 17/07 A301 RMK A01 T01650072  RH  054%=      5-min Rain = 0
KOD1 300122Z 12007KT 17/07 A301 RMK A01 T01650072  RH  054%=      5-min Rain = 0
KOD1 300123Z 12006KT 17/07 A301 RMK A01 T01650072  RH  054%=      5-min Rain = 0
KOD1 300124Z 12006KT 16/07 A301 RMK A01 T01640072  RH  054%=      5-min Rain = 0
KOD1 300125Z 12006KT 16/07 A301 RMK A01 T01640071  RH  054%=      5-min Rain = 0
KOD1 300126Z 12005KT 16/07 A301 RMK A01 T01640071  RH  054%=      5-min Rain = 0
KOD1 300127Z 12006KT 16/07 A301 RMK A01 T01640071  RH  054%=      5-min Rain = 0
KOD1 300128Z 12005KT 16/07 A301 RMK A01 T01640071  RH  054%=      5-min Rain = 0
KOD1 300129Z 12006KT 16/07 A301 RMK A01 T01640071  RH  054%=      5-min Rain = 0
KOD1 300130Z 12005KT 16/07 A301 RMK A01 T01640071  RH  054%=      5-min Rain = 0
KOD1 300131Z 12006KT 16/07 A301 RMK A01 T01630071  RH  054%=      5-min Rain = 0
KOD1 300132Z 12005KT 16/07 A301 RMK A01 T01630071  RH  055%=      5-min Rain = 0
KOD1 300133Z 12005KT 16/07 A301 RMK A01 T01620072  RH  055%=      5-min Rain = 0
KOD1 300134Z 12005KT 16/07 A301 RMK A01 T01610071  RH  055%=      5-min Rain = 0
KOD1 300135Z 12005KT 16/07 A301 RMK A01 T01610072  RH  055%=      5-min Rain = 0
KOD1 300136Z 12005KT 16/07 A301 RMK A01 T01600071  RH  055%=      5-min Rain = 0
KOD1 300137Z 12006KT 16/07 A301 RMK A01 T01600071  RH  055%=      5-min Rain = 0
KOD1 300138Z 12005KT 16/07 A301 RMK A01 T01610071  RH  055%=      5-min Rain = 0
KOD1 300139Z 11005KT 16/07 A301 RMK A01 T01610072  RH  055%=      5-min Rain = 0
KOD1 300140Z 11005KT 16/07 A301 RMK A01 T01600072  RH  056%=      5-min Rain = 0
KOD1 300141Z 12005KT 16/07 A301 RMK A01 T01600072  RH  056%=      5-min Rain = 0
KOD1 300142Z 12005KT 16/07 A301 RMK A01 T01600072  RH  056%=      5-min Rain = 0
KOD1 300143Z 11005KT 16/07 A301 RMK A01 T01590072  RH  056%=      5-min Rain = 0
KOD1 300144Z 11006KT 16/07 A301 RMK A01 T01590072  RH  056%=      5-min Rain = 0
KOD1 300145Z 11006KT 16/07 A301 RMK A01 T01580072  RH  056%=      5-min Rain = 0
KOD1 300146Z 11006KT 16/07 A3009 RMK A01 T01580072  RH  056%=      5-min Rain = 0
KOD1 300147Z 11006KT 16/07 A3009 RMK A01 T01580072  RH  057%=      5-min Rain = 0
KOD1 300148Z 11005KT 16/07 A3009 RMK A01 T01580072  RH  057%=      5-min Rain = 0
KOD1 300149Z 11006KT 16/07 A301 RMK A01 T01570073  RH  057%=      5-min Rain = 0
KOD1 300150Z 11006KT 16/07 A301 RMK A01 T01570073  RH  057%=      5-min Rain = 0
KOD1 300151Z 11005KT 16/07 A301 RMK A01 T01560073  RH  058%=      5-min Rain = 0
KOD1 300152Z 12006KT 16/07 A301 RMK A01 T01550073  RH  058%=      5-min Rain = 0
KOD1 300153Z 11006KT 16/07 A301 RMK A01 T01550073  RH  058%=      5-min Rain = 0
KOD1 300154Z 11006KT 15/07 A301 RMK A01 T01540073  RH  058%=      5-min Rain = 0
KOD1 300155Z 11006KT 15/07 A301 RMK A01 T01540073  RH  059%=      5-min Rain = 0
KOD1 300156Z 11006KT 15/07 A301 RMK A01 T01530073  RH  059%=      5-min Rain = 0
KOD1 300157Z 11006KT 15/07 A301 RMK A01 T01530073  RH  059%=      5-min Rain = 0
KOD1 300158Z 10006KT 15/07 A301 RMK A01 T01520074  RH  059%=      5-min Rain = 0
KOD1 300159Z 10006KT 15/07 A301 RMK A01 T01510074  RH  060%=      5-min Rain = 0
KOD1 300200Z 10006KT 15/07 A301 RMK A01 T01490074  RH  061%=      5-min Rain = 0
KOD1 300201Z 11006KT 15/07 A301 RMK A01 T01480074  RH  061%=      5-min Rain = 0
KOD1 300202Z 11006KT 15/07 A301 RMK A01 T01490074  RH  061%=      5-min Rain = 0
KOD1 300203Z 10006KT 15/07 A301 RMK A01 T01500074  RH  060%=      5-min Rain = 0
KOD1 300204Z 09006KT 15/08 A301 RMK A01 T01510075  RH  060%=      5-min Rain = 0
KOD1 300205Z 10005KT 15/08 A301 RMK A01 T01500075  RH  061%=      5-min Rain = 0
KOD1 300206Z 10006KT 15/08 A301 RMK A01 T01490075  RH  061%=      5-min Rain = 0
KOD1 300207Z 10006KT 15/08 A301 RMK A01 T01500075  RH  061%=      5-min Rain = 0
KOD1 300208Z 11006KT 15/07 A301 RMK A01 T01510074  RH  060%=      5-min Rain = 0
KOD1 300209Z 11006KT 15/07 A301 RMK A01 T01520074  RH  060%=      5-min Rain = 0
KOD1 300210Z 10006KT 15/08 A301 RMK A01 T01520075  RH  060%=      5-min Rain = 0
KOD1 300211Z 10006KT 15/08 A3011 RMK A01 T01520075  RH  060%=      5-min Rain = 0
KOD1 300212Z 10006KT 15/08 A3011 RMK A01 T01520075  RH  060%=      5-min Rain = 0
KOD1 300213Z 10006KT 15/08 A3011 RMK A01 T01510075  RH  060%=      5-min Rain = 0
KOD1 300214Z 10006KT 15/08 A3011 RMK A01 T01520075  RH  060%=      5-min Rain = 0
KOD1 300215Z 10006KT 15/08 A3011 RMK A01 T01520075  RH  060%=      5-min Rain = 0
KOD1 300216Z 10006KT 15/08 A3011 RMK A01 T01510075  RH  060%=      5-min Rain = 0
KOD1 300217Z 10006KT 15/08 A3011 RMK A01 T01510075  RH  060%=      5-min Rain = 0
KOD1 300218Z 10006KT 15/08 A3011 RMK A01 T01510075  RH  060%=      5-min Rain = 0
KOD1 300219Z 10006KT 15/08 A3011 RMK A01 T01510075  RH  060%=      5-min Rain = 0
KOD1 300220Z 11006KT 15/08 A3011 RMK A01 T01510075  RH  060%=      5-min Rain = 0
KOD1 300221Z 11006KT 15/08 A3011 RMK A01 T01510075  RH  060%=      5-min Rain = 0
KOD1 300222Z 11006KT 15/08 A3011 RMK A01 T01510075  RH  060%=      5-min Rain = 0
KOD1 300223Z 11006KT 15/07 A3011 RMK A01 T01510074  RH  060%=      5-min Rain = 0
KOD1 300224Z 12005KT 15/07 A3011 RMK A01 T01520074  RH  060%=      5-min Rain = 0
KOD1 300225Z 12005KT 15/07 A3011 RMK A01 T01530074  RH  059%=      5-min Rain = 0
KOD1 300226Z 12005KT 15/07 A3011 RMK A01 T01530074  RH  059%=      5-min Rain = 0
KOD1 300227Z 12005KT 15/07 A3011 RMK A01 T01530074  RH  059%=      5-min Rain = 0
KOD1 300228Z 12006KT 15/07 A3011 RMK A01 T01530074  RH  059%=      5-min Rain = 0
KOD1 300229Z 12005KT 15/07 A3011 RMK A01 T01530074  RH  059%=      5-min Rain = 0
KOD1 300230Z 12006KT 15/07 A3011 RMK A01 T01530074  RH  059%=      5-min Rain = 0
KOD1 300231Z 12006KT 15/07 A3011 RMK A01 T01520074  RH  059%=      5-min Rain = 0
KOD1 300232Z 12006KT 15/07 A3011 RMK A01 T01510074  RH  060%=      5-min Rain = 0
KOD1 300233Z 11005KT 15/07 A3011 RMK A01 T01510074  RH  060%=      5-min Rain = 0
KOD1 300234Z 12006KT 15/08 A3011 RMK A01 T01500075  RH  061%=      5-min Rain = 0
KOD1 300235Z 11006KT 15/08 A3011 RMK A01 T01490075  RH  061%=      5-min Rain = 0
KOD1 300236Z 12006KT 15/08 A3011 RMK A01 T01490075  RH  061%=      5-min Rain = 0
KOD1 300237Z 12006KT 15/08 A3011 RMK A01 T01480075  RH  061%=      5-min Rain = 0
KOD1 300238Z 12007KT 15/08 A3011 RMK A01 T01480075  RH  061%=      5-min Rain = 0
KOD1 300239Z 12006KT 15/07 A3011 RMK A01 T01490074  RH  061%=      5-min Rain = 0
KOD1 300240Z 11006KT 15/08 A3011 RMK A01 T01490075  RH  061%=      5-min Rain = 0
KOD1 300241Z 11006KT 15/08 A3011 RMK A01 T01490075  RH  061%=      5-min Rain = 0
KOD1 300242Z 10006KT 15/08 A3011 RMK A01 T01490075  RH  061%=      5-min Rain = 0
KOD1 300243Z 09006KT 15/08 A3011 RMK A01 T01480076  RH  062%=      5-min Rain = 0
KOD1 300244Z 08006KT 15/08 A3011 RMK A01 T01470076  RH  063%=      5-min Rain = 0
KOD1 300245Z 09006KT 15/08 A3011 RMK A01 T01450076  RH  063%=      5-min Rain = 0
KOD1 300246Z 10006KT 14/08 A3011 RMK A01 T01440077  RH  064%=      5-min Rain = 0
KOD1 300247Z 11006KT 14/08 A3011 RMK A01 T01430078  RH  065%=      5-min Rain = 0
KOD1 300248Z 11005KT 14/08 A3011 RMK A01 T01430078  RH  065%=      5-min Rain = 0
KOD1 300249Z 12005KT 14/08 A3011 RMK A01 T01430077  RH  065%=      5-min Rain = 0
KOD1 300250Z 13006KT 14/08 A3011 RMK A01 T01440077  RH  064%=      5-min Rain = 0
KOD1 300251Z 12008KT 15/08 A3011 RMK A01 T01460076  RH  063%=      5-min Rain = 0
KOD1 300252Z 13007KT 15/08 A3011 RMK A01 T01500075  RH  061%=      5-min Rain = 0
KOD1 300253Z 12006KT 15/08 A3012 RMK A01 T01520075  RH  060%=      5-min Rain = 0
KOD1 300254Z 12006KT 15/08 A3012 RMK A01 T01510077  RH  061%=      5-min Rain = 0
KOD1 300255Z 12007KT 15/08 A3012 RMK A01 T01500076  RH  061%=      5-min Rain = 0
KOD1 300256Z 12006KT 15/08 A3012 RMK A01 T01510075  RH  061%=      5-min Rain = 0
KOD1 300257Z 13006KT 15/08 A3012 RMK A01 T01520075  RH  060%=      5-min Rain = 0
KOD1 300258Z 13007KT 15/07 A3012 RMK A01 T01520074  RH  060%=      5-min Rain = 0
KOD1 300259Z 13008KT 15/07 A3012 RMK A01 T01520074  RH  059%=      5-min Rain = 0
KOD1 300300Z 13007KT 15/07 A3012 RMK A01 T01530074  RH  059%=      5-min Rain = 0
KOD1 300301Z 13007KT 15/07 A3012 RMK A01 T01540073  RH  058%=      5-min Rain = 0
KOD1 300302Z 13007KT 16/07 A3012 RMK A01 T01550073  RH  058%=      5-min Rain = 0
KOD1 300303Z 13008KT 16/07 A3012 RMK A01 T01560072  RH  057%=      5-min Rain = 0
KOD1 300304Z 13008KT 16/07 A3012 RMK A01 T01570072  RH  057%=      5-min Rain = 0
KOD1 300305Z 13008KT 16/07 A3012 RMK A01 T01570072  RH  057%=      5-min Rain = 0
KOD1 300306Z 13008KT 16/07 A3012 RMK A01 T01570072  RH  057%=      5-min Rain = 0
KOD1 300307Z 13007KT 16/07 A3012 RMK A01 T01570072  RH  057%=      5-min Rain = 0
KOD1 300308Z 13008KT 16/07 A3012 RMK A01 T01570073  RH  057%=      5-min Rain = 0
KOD1 300309Z 13007KT 16/07 A3012 RMK A01 T01570073  RH  057%=      5-min Rain = 0
KOD1 300310Z 13008KT 16/07 A3012 RMK A01 T01570072  RH  057%=      5-min Rain = 0
KOD1 300311Z 13008KT 16/07 A3012 RMK A01 T01580071  RH  056%=      5-min Rain = 0
KOD1 300312Z 12008KT 16/07 A3012 RMK A01 T01590071  RH  056%=      5-min Rain = 0
KOD1 300313Z 12007KT 16/07 A3012 RMK A01 T01580072  RH  056%=      5-min Rain = 0
KOD1 300314Z 12007KT 16/07 A3012 RMK A01 T01580072  RH  056%=      5-min Rain = 0
KOD1 300315Z 12007KT 16/07 A3012 RMK A01 T01580072  RH  056%=      5-min Rain = 0
KOD1 300316Z 12007KT 16/07 A3012 RMK A01 T01580072  RH  057%=      5-min Rain = 0
KOD1 300317Z 12008KT 16/07 A3012 RMK A01 T01570072  RH  057%=      5-min Rain = 0
KOD1 300318Z 12007KT 16/07 A3012 RMK A01 T01570072  RH  057%=      5-min Rain = 0
KOD1 300319Z 12006KT 16/07 A3012 RMK A01 T01570073  RH  058%=      5-min Rain = 0
KOD1 300320Z 11006KT 16/07 A3012 RMK A01 T01550074  RH  058%=      5-min Rain = 0
KOD1 300321Z 12006KT 16/07 A3011 RMK A01 T01550073  RH  058%=      5-min Rain = 0
KOD1 300322Z 11006KT 16/07 A3012 RMK A01 T01550073  RH  058%=      5-min Rain = 0
KOD1 300323Z 11006KT 15/07 A3012 RMK A01 T01540074  RH  059%=      5-min Rain = 0
KOD1 300324Z 10006KT 15/07 A3012 RMK A01 T01530074  RH  059%=      5-min Rain = 0
KOD1 300325Z 10006KT 15/07 A3012 RMK A01 T01520074  RH  060%=      5-min Rain = 0
KOD1 300326Z 10006KT 15/08 A3012 RMK A01 T01520075  RH  060%=      5-min Rain = 0
KOD1 300327Z 11006KT 15/08 A3012 RMK A01 T01520076  RH  060%=      5-min Rain = 0
KOD1 300328Z 11006KT 15/08 A3012 RMK A01 T01510075  RH  060%=      5-min Rain = 0
KOD1 300329Z 11006KT 15/08 A3012 RMK A01 T01520075  RH  060%=      5-min Rain = 0
KOD1 300330Z 11006KT 15/08 A3012 RMK A01 T01520075  RH  060%=      5-min Rain = 0
KOD1 300331Z 11006KT 15/08 A3012 RMK A01 T01520075  RH  060%=      5-min Rain = 0
KOD1 300332Z 11006KT 15/08 A3012 RMK A01 T01530075  RH  060%=      5-min Rain = 0
KOD1 300333Z 12005KT 15/08 A3012 RMK A01 T01530076  RH  060%=      5-min Rain = 0
KOD1 300334Z 12006KT 15/08 A3012 RMK A01 T01530076  RH  060%=      5-min Rain = 0
KOD1 300335Z 11005KT 15/08 A3012 RMK A01 T01520077  RH  061%=      5-min Rain = 0
KOD1 300336Z 11006KT 15/08 A3012 RMK A01 T01520076  RH  061%=      5-min Rain = 0
KOD1 300337Z 12007KT 15/08 A3012 RMK A01 T01510076  RH  060%=      5-min Rain = 0
KOD1 300338Z 12007KT 15/08 A3012 RMK A01 T01520076  RH  061%=      5-min Rain = 0
KOD1 300339Z 12007KT 15/08 A3012 RMK A01 T01520075  RH  060%=      5-min Rain = 0
KOD1 300340Z 12006KT 15/08 A3012 RMK A01 T01520076  RH  061%=      5-min Rain = 0
KOD1 300341Z 12007KT 15/08 A3012 RMK A01 T01510075  RH  060%=      5-min Rain = 0
KOD1 300342Z 12006KT 15/08 A3012 RMK A01 T01520075  RH  060%=      5-min Rain = 0
KOD1 300343Z 12006KT 15/08 A3012 RMK A01 T01510076  RH  061%=      5-min Rain = 0
KOD1 300344Z 12006KT 15/08 A3012 RMK A01 T01500076  RH  061%=      5-min Rain = 0
KOD1 300345Z 12006KT 15/08 A3012 RMK A01 T01500076  RH  061%=      5-min Rain = 0
KOD1 300346Z 12008KT 15/08 A3012 RMK A01 T01500075  RH  061%=      5-min Rain = 0
KOD1 300347Z 12007KT 15/08 A3012 RMK A01 T01510075  RH  060%=      5-min Rain = 0
KOD1 300348Z 12007KT 15/08 A3012 RMK A01 T01510075  RH  060%=      5-min Rain = 0
KOD1 300349Z 12006KT 15/08 A3012 RMK A01 T01510075  RH  060%=      5-min Rain = 0
KOD1 300350Z 13007KT 15/08 A3012 RMK A01 T01510075  RH  060%=      5-min Rain = 0
KOD1 300351Z 13007KT 15/07 A3012 RMK A01 T01520074  RH  060%=      5-min Rain = 0
KOD1 300352Z 13008KT 15/07 A3012 RMK A01 T01520074  RH  060%=      5-min Rain = 0
KOD1 300353Z 13008KT 15/07 A3012 RMK A01 T01520074  RH  060%=      5-min Rain = 0
KOD1 300354Z 13008KT 15/07 A3012 RMK A01 T01530074  RH  059%=      5-min Rain = 0
KOD1 300355Z 13007KT 15/07 A3012 RMK A01 T01530074  RH  059%=      5-min Rain = 0
KOD1 300356Z 13008KT 15/07 A3012 RMK A01 T01530074  RH  059%=      5-min Rain = 0
KOD1 300357Z 13008KT 15/07 A3012 RMK A01 T01530073  RH  059%=      5-min Rain = 0
KOD1 300358Z 13008KT 15/07 A3012 RMK A01 T01530073  RH  059%=      5-min Rain = 0
KOD1 300359Z 13009KT 15/07 A3012 RMK A01 T01530073  RH  059%=      5-min Rain = 0
KOD1 300400Z 13009KT 15/07 A3012 RMK A01 T01540073  RH  058%=      5-min Rain = 0
KOD1 300401Z 13009KT 15/07 A3012 RMK A01 T01540072  RH  058%=      5-min Rain = 0
KOD1 300402Z 13009KT 16/07 A3012 RMK A01 T01550072  RH  058%=      5-min Rain = 0
KOD1 300403Z 13009KT 16/07 A3012 RMK A01 T01550072  RH  058%=      5-min Rain = 0
KOD1 300404Z 13008KT 16/07 A3012 RMK A01 T01560072  RH  057%=      5-min Rain = 0
KOD1 300405Z 13008KT 16/07 A3012 RMK A01 T01560072  RH  057%=      5-min Rain = 0
KOD1 300406Z 13009KT 16/07 A3012 RMK A01 T01560072  RH  057%=      5-min Rain = 0
KOD1 300407Z 13008KT 16/07 A3012 RMK A01 T01560072  RH  057%=      5-min Rain = 0
KOD1 300408Z 13008KT 16/07 A3012 RMK A01 T01570072  RH  057%=      5-min Rain = 0
KOD1 300409Z 13007KT 16/07 A3012 RMK A01 T01570072  RH  057%=      5-min Rain = 0
KOD1 300410Z 13008KT 16/07 A3012 RMK A01 T01570071  RH  057%=      5-min Rain = 0
KOD1 300411Z 13008KT 16/07 A3012 RMK A01 T01580071  RH  056%=      5-min Rain = 0
KOD1 300412Z 13008KT 16/07 A3012 RMK A01 T01580072  RH  056%=      5-min Rain = 0
KOD1 300413Z 13009KT 16/07 A3012 RMK A01 T01580071  RH  056%=      5-min Rain = 0
KOD1 300414Z 13007KT 16/07 A3012 RMK A01 T01590072  RH  056%=      5-min Rain = 0
KOD1 300415Z 12008KT 16/07 A3012 RMK A01 T01590072  RH  056%=      5-min Rain = 0
KOD1 300416Z 13008KT 16/07 A3012 RMK A01 T01580071  RH  056%=      5-min Rain = 0
KOD1 300417Z 13007KT 16/07 A3012 RMK A01 T01590072  RH  056%=      5-min Rain = 0
KOD1 300418Z 12007KT 16/07 A3012 RMK A01 T01590072  RH  056%=      5-min Rain = 0
KOD1 300419Z 13007KT 16/07 A3012 RMK A01 T01590072  RH  056%=      5-min Rain = 0
KOD1 300420Z 13007KT 16/07 A3012 RMK A01 T01580072  RH  056%=      5-min Rain = 0
KOD1 300421Z 13007KT 16/07 A3012 RMK A01 T01580072  RH  056%=      5-min Rain = 0
KOD1 300422Z 12007KT 16/07 A3012 RMK A01 T01590071  RH  056%=      5-min Rain = 0
KOD1 300423Z 13007KT 16/07 A3012 RMK A01 T01590072  RH  056%=      5-min Rain = 0
KOD1 300424Z 12005KT 16/07 A3012 RMK A01 T01590072  RH  056%=      5-min Rain = 0
KOD1 300425Z 13006KT 16/07 A3012 RMK A01 T01580073  RH  057%=      5-min Rain = 0
KOD1 300426Z 13006KT 16/07 A3012 RMK A01 T01580072  RH  056%=      5-min Rain = 0
KOD1 300427Z 13008KT 16/07 A3012 RMK A01 T01590071  RH  056%=      5-min Rain = 0
KOD1 300428Z 13007KT 16/07 A3012 RMK A01 T01590071  RH  056%=      5-min Rain = 0
KOD1 300429Z 13008KT 16/07 A3012 RMK A01 T01600072  RH  056%=      5-min Rain = 0
KOD1 300430Z 13007KT 16/07 A3012 RMK A01 T01600071  RH  055%=      5-min Rain = 0
KOD1 300431Z 13008KT 16/07 A3012 RMK A01 T01600072  RH  056%=      5-min Rain = 0
KOD1 300432Z 13007KT 16/07 A3012 RMK A01 T01610072  RH  055%=      5-min Rain = 0
KOD1 300433Z 13008KT 16/07 A3012 RMK A01 T01600072  RH  056%=      5-min Rain = 0
KOD1 300434Z 13008KT 16/07 A3011 RMK A01 T01600071  RH  056%=      5-min Rain = 0
KOD1 300435Z 13009KT 16/07 A3011 RMK A01 T01600071  RH  056%=      5-min Rain = 0
KOD1 300436Z 13007KT 16/07 A3011 RMK A01 T01610071  RH  055%=      5-min Rain = 0
KOD1 300437Z 12007KT 16/07 A3011 RMK A01 T01600072  RH  056%=      5-min Rain = 0
KOD1 300438Z 13008KT 16/07 A3012 RMK A01 T01600072  RH  056%=      5-min Rain = 0
KOD1 300439Z 13007KT 16/07 A3012 RMK A01 T01600071  RH  056%=      5-min Rain = 0
KOD1 300440Z 13008KT 16/07 A3011 RMK A01 T01600071  RH  056%=      5-min Rain = 0
KOD1 300441Z 13007KT 16/07 A3011 RMK A01 T01600071  RH  055%=      5-min Rain = 0
KOD1 300442Z 13006KT 16/07 A3011 RMK A01 T01600072  RH  056%=      5-min Rain = 0
KOD1 300443Z 12007KT 16/07 A3011 RMK A01 T01600072  RH  056%=      5-min Rain = 0
KOD1 300444Z 13008KT 16/07 A3011 RMK A01 T01600071  RH  056%=      5-min Rain = 0
KOD1 300445Z 13007KT 16/07 A3011 RMK A01 T01600072  RH  056%=      5-min Rain = 0
KOD1 300446Z 13006KT 16/07 A3011 RMK A01 T01600072  RH  056%=      5-min Rain = 0
KOD1 300447Z 13007KT 16/07 A3011 RMK A01 T01590072  RH  056%=      5-min Rain = 0
KOD1 300448Z 13008KT 16/07 A3011 RMK A01 T01590072  RH  056%=      5-min Rain = 0
KOD1 300449Z 13006KT 16/07 A3011 RMK A01 T01590072  RH  056%=      5-min Rain = 0
KOD1 300450Z 13007KT 16/07 A3011 RMK A01 T01590073  RH  056%=      5-min Rain = 0
KOD1 300451Z 13007KT 16/07 A3011 RMK A01 T01590073  RH  057%=      5-min Rain = 0
KOD1 300452Z 13007KT 16/07 A3011 RMK A01 T01590073  RH  057%=      5-min Rain = 0
KOD1 300453Z 13006KT 16/07 A3011 RMK A01 T01590073  RH  057%=      5-min Rain = 0
KOD1 300454Z 14006KT 16/07 A3011 RMK A01 T01590073  RH  057%=      5-min Rain = 0
KOD1 300455Z 14005KT 16/07 A3011 RMK A01 T01580073  RH  057%=      5-min Rain = 0
KOD1 300456Z 13007KT 16/07 A3011 RMK A01 T01580073  RH  057%=      5-min Rain = 0
KOD1 300457Z 13008KT 16/07 A3011 RMK A01 T01580073  RH  057%=      5-min Rain = 0
KOD1 300458Z 13007KT 16/07 A3011 RMK A01 T01580073  RH  057%=      5-min Rain = 0
KOD1 300459Z 13006KT 16/07 A3011 RMK A01 T01580073  RH  057%=      5-min Rain = 0

Page generated in 0.2001 seconds.